AA2352 / N9029F 7700 Squawk Report (17th of February, 2020)

Aircraft A319 Reg No. N9029F Age 5 years old
Model A319 Jet engines 2 First flight 24-02-15
Registered 03-03-15 Rollout 02-15 Delivered 03-03-15
Construction No. 6491 Line No. N/A Series 115(SL)
ADSHEX AC7A33 Airline name American Airlines Owner N/A
Airfield based Dallas-Fort Worth~TX~N First tracked N/A

Flight history for N9029F

Route Flight No Date Playback
Dallas Fort Worth (DFW) - Hartsfield Jackson Atlanta Intl (ATL) - Dallas Fort Worth (DFW) AA1365 2020-04-06 21:20:00
Miami Intl (MIA) - Hartsfield Jackson Atlanta Intl (ATL) AA2245 2020-04-06 03:34:00
Miami Intl (MIA) - Austin Bergstrom Intl (AUS) - Miami Intl (MIA) AA2900 2020-04-04 04:03:00
Hartsfield Jackson Atlanta Intl (ATL) - Miami Intl (MIA) AA2344 2020-04-03 13:39:00
???? N/A 2020-04-01 13:18:00
Miami Intl (MIA) - Hartsfield Jackson Atlanta Intl (ATL) AA2245 2020-03-30 09:16:00
Chicago Ohare Intl (ORD) - Miami Intl (MIA) AA1411 2020-03-27 13:46:00
Miami Intl (MIA) - Chicago Ohare Intl (ORD) AA897 2020-03-27 04:58:00
John F Kennedy Intl (JFK) - Kansas City Intl (MCI) AA9668 2020-03-23 15:06:00
Miami Intl (MIA) - Hartsfield Jackson Atlanta Intl (ATL) AA2245 2020-03-23 03:27:00
San Antonio Intl (SAT) - Miami Intl (MIA) AA1604 2020-03-22 13:40:00
Miami Intl (MIA) - San Antonio Intl (SAT) AA1468 2020-03-22 02:39:00
Flamingo (BON) - Miami Intl (MIA) AA1379 2020-03-21 21:34:00
Fort Worth Alliance Airport (AFW) - Chicago Ohare Intl (ORD) AA9645 2020-03-21 17:21:00
Licenciado Benito Juarez (MEX) - Miami Intl (MIA) AA1835 2020-03-21 08:55:00
Miami Intl (MIA) - Licenciado Benito Juarez (MEX) AA257 2020-03-21 06:22:00
Cancun Intl (CUN) - Miami Intl (MIA) AA2494 2020-03-20 16:51:00
Hartsfield Jackson Atlanta Intl (ATL) - Miami Intl (MIA) AA1177 2020-03-19 13:05:00
Miami Intl (MIA) - Hartsfield Jackson Atlanta Intl (ATL) AA2245 2020-03-19 03:39:00
Licenciado Benito Juarez (MEX) - Miami Intl (MIA) AA1302 2020-03-18 18:56:00
Time Lat Lon Altitude Heading Speed Vertical Rate
2020-02-17 17:06:53 GMT 41.973999 -87.896011 0 81 15 0
2020-02-17 17:06:50 GMT 41.973969 -87.896278 0 81 15 0
2020-02-17 17:06:46 GMT 41.974030 -87.896339 0 302 3 0
2020-02-17 17:06:43 GMT 41.973991 -87.896294 0 300 3 0
2020-02-17 17:06:40 GMT 41.973930 -87.896240 0 293 2 0
2020-02-17 17:06:37 GMT 41.973930 -87.896240 0 294 3 0
2020-02-17 17:06:34 GMT 41.973919 -87.896202 0 289 3 0
2020-02-17 17:06:31 GMT 41.973888 -87.896111 0 296 3 0
2020-02-17 17:06:28 GMT 41.973881 -87.896080 0 299 3 0
2020-02-17 17:06:25 GMT 41.973862 -87.896027 0 296 4 0
2020-02-17 17:06:22 GMT 41.973850 -87.895973 0 302 4 0
2020-02-17 17:06:19 GMT 41.973808 -87.895889 0 281 4 0
2020-02-17 17:06:16 GMT 41.973789 -87.895828 0 256 5 0
2020-02-17 17:06:13 GMT 41.973782 -87.895729 0 252 6 0
2020-02-17 17:06:10 GMT 41.973789 -87.895622 0 241 4 0
2020-02-17 17:06:07 GMT 41.973808 -87.895538 0 227 4 0
2020-02-17 17:06:04 GMT 41.973850 -87.895508 0 221 5 0
2020-02-17 17:06:01 GMT 41.973930 -87.895409 0 216 8 0
2020-02-17 17:05:58 GMT 41.973961 -87.895370 0 203 4 0
2020-02-17 17:05:55 GMT 41.974091 -87.895309 0 186 9 0
2020-02-17 17:05:52 GMT 41.974209 -87.895302 0 193 10 0
2020-02-17 17:05:49 GMT 41.974300 -87.895264 0 182 8 0
2020-02-17 17:05:46 GMT 41.974400 -87.895248 0 183 10 0
2020-02-17 17:05:43 GMT 41.974522 -87.895218 0 174 7 0
2020-02-17 17:05:40 GMT 41.974628 -87.895241 0 174 7 0
2020-02-17 17:05:37 GMT 41.974720 -87.895233 0 179 11 0
2020-02-17 17:05:34 GMT 41.975010 -87.895271 0 173 12 0
2020-02-17 17:05:31 GMT 41.975182 -87.895271 0 183 13 0
2020-02-17 17:05:28 GMT 41.975368 -87.895233 0 186 13 0
2020-02-17 17:05:25 GMT 41.975368 -87.895233 0 182 14 0
2020-02-17 17:05:22 GMT 41.975571 -87.895218 0 183 12 0
2020-02-17 17:05:19 GMT 41.975731 -87.895187 0 174 14 0
2020-02-17 17:05:16 GMT 41.976109 -87.895279 0 181 12 0
2020-02-17 17:05:10 GMT 41.976269 -87.895180 0 170 12 0
2020-02-17 17:05:07 GMT 41.976421 -87.895218 0 176 13 0
2020-02-17 17:05:04 GMT 41.976620 -87.895264 0 180 14 0
2020-02-17 17:05:01 GMT 41.976791 -87.895218 0 176 13 0
2020-02-17 17:04:58 GMT 41.976959 -87.895271 0 172 14 0
2020-02-17 17:04:55 GMT 41.977188 -87.895241 0 181 15 0
2020-02-17 17:04:52 GMT 41.977551 -87.895241 0 181 13 0
2020-02-17 17:04:49 GMT 41.977741 -87.895203 0 177 11 0
2020-02-17 17:04:46 GMT 41.977741 -87.895203 0 185 12 0
2020-02-17 17:04:43 GMT 41.977901 -87.895279 0 185 12 0
2020-02-17 17:04:40 GMT 41.978081 -87.895248 0 186 11 0
2020-02-17 17:04:37 GMT 41.978249 -87.895210 0 182 11 0
2020-02-17 17:04:34 GMT 41.978409 -87.895187 0 175 10 0
2020-02-17 17:04:31 GMT 41.978561 -87.895210 0 176 11 0
2020-02-17 17:04:28 GMT 41.978722 -87.895248 0 182 15 0
2020-02-17 17:04:25 GMT 41.978901 -87.895241 0 190 15 0
2020-02-17 17:04:22 GMT 41.979118 -87.895210 0 198 13 0
2020-02-17 17:04:19 GMT 41.979259 -87.895126 0 201 14 0
2020-02-17 17:04:16 GMT 41.979439 -87.895027 0 214 14 0
2020-02-17 17:04:13 GMT 41.979599 -87.894897 0 230 12 0
2020-02-17 17:04:10 GMT 41.979710 -87.894737 0 236 12 0
2020-02-17 17:04:07 GMT 41.979801 -87.894562 0 229 10 0
2020-02-17 17:04:04 GMT 41.979881 -87.894417 0 230 10 0
2020-02-17 17:04:01 GMT 41.980129 -87.894127 0 233 12 0
2020-02-17 17:03:58 GMT 41.980221 -87.893951 0 226 10 0
2020-02-17 17:03:52 GMT 41.980289 -87.893799 0 230 10 0
2020-02-17 17:03:49 GMT 41.980469 -87.893494 0 227 10 0
2020-02-17 17:03:46 GMT 41.980572 -87.893349 0 213 13 0
2020-02-17 17:03:43 GMT 41.980709 -87.893257 0 184 9 0
2020-02-17 17:03:40 GMT 41.980839 -87.893250 0 163 9 0
2020-02-17 17:03:37 GMT 41.980839 -87.893250 0 163 9 0
2020-02-17 17:03:34 GMT 41.980961 -87.893303 0 142 9 0
2020-02-17 17:03:31 GMT 41.981079 -87.893341 0 136 11 0
2020-02-17 17:03:28 GMT 41.981312 -87.893639 0 131 13 0
2020-02-17 17:03:22 GMT 41.981449 -87.893829 0 137 15 0
2020-02-17 17:03:19 GMT 41.981579 -87.893990 0 133 15 0
2020-02-17 17:03:16 GMT 41.981731 -87.894203 0 139 14 0
2020-02-17 17:03:13 GMT 41.981869 -87.894363 0 130 13 0
2020-02-17 17:03:10 GMT 41.981972 -87.894547 0 130 14 0
2020-02-17 17:03:07 GMT 41.982109 -87.894730 0 132 14 0
2020-02-17 17:03:04 GMT 41.982239 -87.894920 0 133 14 0
2020-02-17 17:03:01 GMT 41.982391 -87.895111 0 133 13 0
2020-02-17 17:02:58 GMT 41.982498 -87.895279 0 134 12 0
2020-02-17 17:02:55 GMT 41.982651 -87.895470 0 126 12 0
2020-02-17 17:02:52 GMT 41.982761 -87.895660 0 115 13 0
2020-02-17 17:02:49 GMT 41.982861 -87.895866 0 93 15 0
2020-02-17 17:02:46 GMT 41.982891 -87.896141 0 86 18 0
2020-02-17 17:02:43 GMT 41.982880 -87.896439 0 90 19 0
2020-02-17 17:02:40 GMT 41.982868 -87.896759 0 83 20 0
2020-02-17 17:02:37 GMT 41.982868 -87.897141 0 91 20 0
2020-02-17 17:02:34 GMT 41.982868 -87.897522 0 90 19 0
2020-02-17 17:02:31 GMT 41.982849 -87.897873 0 98 20 0
2020-02-17 17:02:28 GMT 41.982922 -87.898247 0 98 20 0
2020-02-17 17:02:25 GMT 41.982861 -87.898972 0 96 17 0
2020-02-17 17:02:22 GMT 41.982929 -87.899307 0 95 19 0
2020-02-17 17:02:19 GMT 41.982899 -87.899597 0 90 17 0
2020-02-17 17:02:13 GMT 41.982880 -87.900253 0 86 20 0
2020-02-17 17:02:10 GMT 41.982868 -87.900612 0 87 17 0
2020-02-17 17:02:04 GMT 41.982868 -87.900932 0 90 16 0
2020-02-17 17:02:01 GMT 41.982868 -87.901222 0 86 16 0
2020-02-17 17:01:58 GMT 41.982830 -87.901802 0 98 16 0
2020-02-17 17:01:52 GMT 41.982861 -87.902077 0 96 16 0
2020-02-17 17:01:49 GMT 41.982868 -87.902443 0 88 12 0
2020-02-17 17:01:46 GMT 41.982861 -87.902672 0 87 14 0
2020-02-17 17:01:43 GMT 41.982849 -87.902962 0 91 13 0
2020-02-17 17:01:40 GMT 41.982849 -87.903198 0 89 15 0
2020-02-17 17:01:37 GMT 41.982868 -87.903458 0 89 15 0
2020-02-17 17:01:34 GMT 41.982880 -87.903732 0 87 12 0
2020-02-17 17:01:31 GMT 41.982880 -87.904007 0 89 12 0
2020-02-17 17:01:28 GMT 41.982868 -87.904198 0 88 10 0
2020-02-17 17:01:25 GMT 41.982868 -87.904442 0 91 11 0
2020-02-17 17:01:22 GMT 41.982868 -87.904633 0 93 11 0
2020-02-17 17:01:19 GMT 41.982880 -87.904869 0 87 10 0
2020-02-17 17:01:16 GMT 41.982868 -87.905052 0 91 10 0
2020-02-17 17:01:13 GMT 41.982891 -87.905258 0 85 10 0
2020-02-17 17:01:10 GMT 41.982880 -87.905457 0 99 11 0
2020-02-17 17:01:07 GMT 41.982922 -87.905663 0 84 11 0
2020-02-17 17:01:04 GMT 41.982910 -87.905884 0 93 14 0
2020-02-17 17:01:01 GMT 41.982899 -87.906113 0 86 12 0
2020-02-17 17:00:58 GMT 41.982922 -87.906616 0 93 14 0
2020-02-17 17:00:55 GMT 41.982922 -87.906616 0 82 13 0
2020-02-17 17:00:52 GMT 41.982880 -87.906860 0 90 13 0
2020-02-17 17:00:49 GMT 41.982880 -87.907112 0 90 14 0
2020-02-17 17:00:46 GMT 41.982891 -87.907379 0 92 15 0
2020-02-17 17:00:43 GMT 41.982891 -87.907654 0 90 16 0
2020-02-17 17:00:40 GMT 41.982891 -87.907921 0 91 15 0
2020-02-17 17:00:37 GMT 41.982880 -87.908241 0 91 14 0
2020-02-17 17:00:34 GMT 41.982880 -87.908501 0 90 14 0
2020-02-17 17:00:31 GMT 41.982880 -87.908737 0 96 16 0
2020-02-17 17:00:28 GMT 41.982891 -87.909027 0 89 15 0
2020-02-17 17:00:25 GMT 41.982922 -87.909332 0 81 13 0
2020-02-17 17:00:22 GMT 41.982868 -87.909531 0 87 16 0
2020-02-17 17:00:19 GMT 41.982880 -87.909859 0 91 20 0
2020-02-17 17:00:16 GMT 41.982891 -87.910210 0 91 17 0
2020-02-17 17:00:13 GMT 41.982899 -87.910583 0 87 19 0
2020-02-17 17:00:10 GMT 41.982868 -87.910927 0 88 20 0
2020-02-17 17:00:07 GMT 41.982891 -87.911308 0 88 20 0
2020-02-17 17:00:04 GMT 41.982891 -87.911667 0 91 18 0
2020-02-17 17:00:01 GMT 41.982910 -87.912033 0 94 18 0
2020-02-17 16:59:58 GMT 41.982880 -87.912361 0 91 18 0
2020-02-17 16:59:55 GMT 41.982880 -87.912659 0 92 17 0
2020-02-17 16:59:52 GMT 41.982891 -87.913033 0 91 19 0
2020-02-17 16:59:49 GMT 41.982868 -87.913643 0 93 16 0
2020-02-17 16:59:43 GMT 41.982891 -87.913971 0 91 16 0
2020-02-17 16:59:40 GMT 41.982899 -87.914597 0 88 17 0
2020-02-17 16:59:37 GMT 41.982880 -87.914909 0 90 17 0
2020-02-17 16:59:34 GMT 41.982880 -87.914909 0 90 17 0
2020-02-17 16:59:31 GMT 41.982891 -87.915237 0 86 17 0
2020-02-17 16:59:28 GMT 41.982891 -87.915558 0 92 18 0
2020-02-17 16:59:25 GMT 41.982899 -87.915909 0 84 17 0
2020-02-17 16:59:22 GMT 41.982880 -87.916237 0 88 17 0
2020-02-17 16:59:19 GMT 41.982880 -87.916542 0 90 17 0
2020-02-17 16:59:16 GMT 41.982868 -87.916870 0 92 14 0
2020-02-17 16:59:13 GMT 41.982880 -87.917168 0 93 15 0
2020-02-17 16:59:10 GMT 41.982868 -87.917458 0 93 14 0
2020-02-17 16:59:07 GMT 41.982880 -87.917686 0 87 15 0
2020-02-17 16:59:04 GMT 41.982868 -87.917961 0 93 16 0
2020-02-17 16:59:01 GMT 41.982880 -87.918259 0 90 16 0
2020-02-17 16:58:58 GMT 41.982891 -87.918556 0 85 14 0
2020-02-17 16:58:55 GMT 41.982880 -87.918831 0 86 14 0
2020-02-17 16:58:52 GMT 41.982880 -87.919083 0 92 15 0
2020-02-17 16:58:49 GMT 41.982868 -87.919380 0 89 14 0
2020-02-17 16:58:46 GMT 41.982861 -87.919632 0 92 13 0
2020-02-17 16:58:43 GMT 41.982868 -87.919861 0 76 13 0
2020-02-17 16:58:40 GMT 41.982830 -87.920097 0 78 12 0
2020-02-17 16:58:37 GMT 41.982738 -87.920479 0 58 10 0
2020-02-17 16:58:31 GMT 41.982578 -87.920822 0 49 10 0
2020-02-17 16:58:25 GMT 41.982391 -87.921097 0 35 10 0
2020-02-17 16:58:22 GMT 41.982391 -87.921097 0 35 6 0
2020-02-17 16:58:19 GMT 41.982288 -87.921158 0 45 8 0
2020-02-17 16:58:16 GMT 41.982220 -87.921242 0 52 6 0
2020-02-17 16:58:13 GMT 41.982140 -87.921371 0 55 4 0
2020-02-17 16:58:10 GMT 41.982128 -87.921440 0 114 4 0
2020-02-17 16:58:07 GMT 41.982059 -87.921494 0 107 4 0
2020-02-17 16:58:04 GMT 41.982090 -87.921562 0 124 4 0
2020-02-17 16:58:01 GMT 41.982140 -87.921631 0 135 12 0
2020-02-17 16:57:58 GMT 41.982262 -87.921783 0 147 14 0
2020-02-17 16:57:55 GMT 41.982422 -87.921944 0 142 18 0
2020-02-17 16:57:52 GMT 41.982620 -87.922127 0 141 18 0
2020-02-17 16:57:49 GMT 41.982800 -87.922348 0 135 18 0
2020-02-17 16:57:46 GMT 41.982990 -87.922577 0 142 16 0
2020-02-17 16:57:43 GMT 41.983158 -87.922752 0 133 16 0
2020-02-17 16:57:40 GMT 41.983311 -87.922974 0 140 15 0
2020-02-17 16:57:37 GMT 41.983631 -87.923302 0 131 13 0
2020-02-17 16:57:34 GMT 41.983791 -87.923523 0 133 15 0
2020-02-17 16:57:31 GMT 41.983791 -87.923523 0 143 14 0
2020-02-17 16:57:28 GMT 41.983959 -87.923698 0 134 16 0
2020-02-17 16:57:25 GMT 41.984112 -87.923843 0 136 11 0
2020-02-17 16:57:22 GMT 41.984211 -87.923988 0 150 16 0
2020-02-17 16:57:19 GMT 41.984402 -87.924141 0 138 13 0
2020-02-17 16:57:16 GMT 41.984520 -87.924309 0 147 12 0
2020-02-17 16:57:13 GMT 41.984699 -87.924431 0 162 15 0
2020-02-17 16:57:10 GMT 41.984859 -87.924492 0 172 12 0
2020-02-17 16:57:07 GMT 41.985050 -87.924553 0 169 14 0
2020-02-17 16:57:04 GMT 41.985378 -87.924469 0 217 12 0
2020-02-17 16:57:01 GMT 41.985500 -87.924332 0 213 13 0
2020-02-17 16:56:58 GMT 41.985500 -87.924332 0 222 13 0
2020-02-17 16:56:55 GMT 41.985649 -87.924187 0 223 10 0
2020-02-17 16:56:52 GMT 41.985760 -87.924088 0 232 13 0
2020-02-17 16:56:49 GMT 41.985882 -87.923882 0 232 12 0
2020-02-17 16:56:46 GMT 41.985981 -87.923683 0 228 14 0
2020-02-17 16:56:43 GMT 41.986099 -87.923492 0 226 14 0
2020-02-17 16:56:40 GMT 41.986252 -87.923279 0 234 12 0
2020-02-17 16:56:37 GMT 41.986328 -87.923126 0 230 11 0
2020-02-17 16:56:34 GMT 41.986420 -87.922958 0 232 11 0
2020-02-17 16:56:31 GMT 41.986641 -87.922661 0 238 12 0
2020-02-17 16:56:25 GMT 41.986729 -87.922493 0 259 13 0
2020-02-17 16:56:22 GMT 41.986740 -87.922287 0 254 12 0
2020-02-17 16:56:19 GMT 41.986790 -87.922050 0 259 16 0
2020-02-17 16:56:16 GMT 41.986809 -87.921402 0 270 19 0
2020-02-17 16:56:13 GMT 41.986809 -87.921402 0 271 24 0
2020-02-17 16:56:10 GMT 41.986801 -87.920937 0 269 21 0
2020-02-17 16:56:07 GMT 41.986790 -87.920563 0 268 24 0
2020-02-17 16:56:04 GMT 41.986801 -87.920113 0 267 22 0
2020-02-17 16:56:01 GMT 41.986790 -87.919708 0 270 21 0
2020-02-17 16:55:58 GMT 41.986809 -87.919342 0 271 20 0
2020-02-17 16:55:55 GMT 41.986778 -87.918892 0 267 20 0
2020-02-17 16:55:52 GMT 41.986809 -87.918510 0 263 21 0
2020-02-17 16:55:49 GMT 41.986809 -87.918129 0 270 21 0
2020-02-17 16:55:46 GMT 41.986809 -87.917709 0 269 21 0
2020-02-17 16:55:43 GMT 41.986809 -87.917343 0 272 20 0
2020-02-17 16:55:40 GMT 41.986832 -87.916946 0 270 22 0
2020-02-17 16:55:37 GMT 41.986801 -87.916573 0 272 20 0
2020-02-17 16:55:34 GMT 41.986801 -87.916168 0 270 21 0
2020-02-17 16:55:31 GMT 41.986809 -87.915421 0 270 21 0
2020-02-17 16:55:28 GMT 41.986809 -87.915421 0 270 19 0
2020-02-17 16:55:25 GMT 41.986801 -87.915047 0 270 18 0
2020-02-17 16:55:22 GMT 41.986820 -87.914726 0 271 21 0
2020-02-17 16:55:19 GMT 41.986801 -87.914322 0 269 19 0
2020-02-17 16:55:16 GMT 41.986801 -87.913940 0 269 19 0
2020-02-17 16:55:13 GMT 41.986809 -87.913643 0 270 17 0
2020-02-17 16:55:10 GMT 41.986801 -87.913322 0 268 16 0
2020-02-17 16:55:07 GMT 41.986809 -87.913002 0 270 16 0
2020-02-17 16:55:04 GMT 41.986809 -87.912682 0 273 15 0
2020-02-17 16:55:01 GMT 41.986809 -87.912437 0 270 14 0
2020-02-17 16:54:58 GMT 41.986809 -87.912170 0 271 13 0
2020-02-17 16:54:55 GMT 41.986809 -87.911919 0 274 12 0
2020-02-17 16:54:52 GMT 41.986790 -87.911697 0 257 12 0
2020-02-17 16:54:49 GMT 41.986801 -87.911461 0 269 12 0
2020-02-17 16:54:46 GMT 41.986820 -87.911102 0 247 11 0
2020-02-17 16:54:43 GMT 41.986820 -87.911102 0 222 11 0
2020-02-17 16:54:40 GMT 41.986938 -87.910942 0 204 10 0
2020-02-17 16:54:37 GMT 41.987049 -87.910843 0 190 11 0
2020-02-17 16:54:34 GMT 41.987202 -87.910797 0 176 12 0
2020-02-17 16:54:31 GMT 41.987339 -87.910797 0 182 13 0
2020-02-17 16:54:28 GMT 41.987492 -87.910767 0 186 16 0
2020-02-17 16:54:25 GMT 41.987740 -87.910782 0 179 15 0
2020-02-17 16:54:22 GMT 41.987942 -87.910767 0 179 15 0
2020-02-17 16:54:19 GMT 41.988350 -87.910789 0 178 17 0
2020-02-17 16:54:13 GMT 41.988892 -87.910812 0 178 18 0
2020-02-17 16:54:10 GMT 41.988892 -87.910812 0 185 18 0
2020-02-17 16:54:04 GMT 41.989712 -87.910782 0 174 22 0
2020-02-17 16:54:01 GMT 41.989712 -87.910782 0 174 18 0
2020-02-17 16:53:58 GMT 41.989948 -87.910812 0 177 14 0
2020-02-17 16:53:55 GMT 41.990139 -87.910820 0 179 19 0
2020-02-17 16:53:52 GMT 41.990429 -87.910812 0 170 21 0
2020-02-17 16:53:49 GMT 41.990688 -87.910873 0 187 19 0
2020-02-17 16:53:46 GMT 41.990940 -87.910789 0 177 19 0
2020-02-17 16:53:43 GMT 41.991192 -87.910820 0 176 19 0
2020-02-17 16:53:40 GMT 41.991451 -87.910851 0 174 18 0
2020-02-17 16:53:37 GMT 41.991718 -87.910858 0 167 17 0
2020-02-17 16:53:34 GMT 41.991940 -87.910912 0 170 18 0
2020-02-17 16:53:31 GMT 41.992199 -87.911003 0 173 16 0
2020-02-17 16:53:28 GMT 41.992409 -87.910957 0 183 16 0
2020-02-17 16:53:25 GMT 41.992661 -87.910957 0 202 15 0
2020-02-17 16:53:22 GMT 41.992840 -87.910873 0 199 16 0
2020-02-17 16:53:19 GMT 41.993069 -87.910751 0 217 14 0
2020-02-17 16:53:16 GMT 41.993221 -87.910599 0 221 14 0
2020-02-17 16:53:13 GMT 41.993370 -87.910408 0 222 14 0
2020-02-17 16:53:10 GMT 41.993519 -87.910240 0 217 13 0
2020-02-17 16:53:07 GMT 41.993649 -87.910072 0 215 11 0
2020-02-17 16:53:04 GMT 41.993790 -87.909943 0 220 10 0
2020-02-17 16:53:01 GMT 41.993900 -87.909828 0 225 11 0
2020-02-17 16:52:58 GMT 41.994011 -87.909668 0 220 9 0
2020-02-17 16:52:55 GMT 41.994110 -87.909561 0 221 7 0
2020-02-17 16:52:52 GMT 41.994171 -87.909470 0 223 7 0
2020-02-17 16:52:49 GMT 41.994259 -87.909378 0 229 6 0
2020-02-17 16:52:46 GMT 41.994331 -87.909279 0 221 8 0
2020-02-17 16:52:43 GMT 41.994419 -87.909157 0 196 8 0
2020-02-17 16:52:40 GMT 41.994530 -87.909119 0 183 9 0
2020-02-17 16:52:37 GMT 41.994801 -87.909180 0 143 13 0
2020-02-17 16:52:34 GMT 41.994801 -87.909180 0 143 12 0
2020-02-17 16:52:31 GMT 41.994919 -87.909309 0 147 15 0
2020-02-17 16:52:28 GMT 41.995079 -87.909462 0 136 13 0
2020-02-17 16:52:25 GMT 41.995239 -87.909622 0 141 11 0
2020-02-17 16:52:22 GMT 41.995338 -87.909752 0 139 9 0
2020-02-17 16:52:19 GMT 41.995468 -87.909866 0 147 13 0
2020-02-17 16:52:16 GMT 41.995602 -87.909988 0 149 12 0
2020-02-17 16:52:13 GMT 41.995762 -87.910149 0 167 12 0
2020-02-17 16:52:10 GMT 41.995911 -87.910080 0 196 11 0
2020-02-17 16:52:07 GMT 41.996040 -87.910049 0 199 11 0
2020-02-17 16:52:04 GMT 41.996189 -87.909950 0 221 14 0
2020-02-17 16:52:01 GMT 41.996342 -87.909767 0 236 11 0
2020-02-17 16:51:58 GMT 41.996429 -87.909592 0 235 15 0
2020-02-17 16:51:55 GMT 41.996540 -87.909401 0 245 17 0
2020-02-17 16:51:52 GMT 41.996639 -87.909119 0 251 16 0
2020-02-17 16:51:49 GMT 41.996738 -87.908836 0 246 14 0
2020-02-17 16:51:46 GMT 41.996811 -87.908577 0 232 15 0
2020-02-17 16:51:43 GMT 41.996929 -87.908379 0 236 17 0
2020-02-17 16:51:40 GMT 41.997059 -87.908096 0 227 15 0
2020-02-17 16:51:37 GMT 41.997211 -87.907898 0 232 15 0
2020-02-17 16:51:34 GMT 41.997330 -87.907669 0 227 15 0
2020-02-17 16:51:31 GMT 41.997471 -87.907478 0 229 14 0
2020-02-17 16:51:28 GMT 41.997581 -87.907257 0 226 15 0
2020-02-17 16:51:25 GMT 41.997730 -87.907051 0 227 12 0
2020-02-17 16:51:22 GMT 41.997829 -87.906891 0 230 12 0
2020-02-17 16:51:19 GMT 41.997959 -87.906708 0 242 10 0
2020-02-17 16:51:16 GMT 41.998039 -87.906540 0 255 10 0
2020-02-17 16:51:13 GMT 41.998081 -87.906372 0 263 13 0
2020-02-17 16:51:10 GMT 41.998119 -87.906158 0 265 13 0
2020-02-17 16:51:07 GMT 41.998161 -87.905930 0 275 16 0
2020-02-17 16:51:04 GMT 41.998112 -87.905586 0 294 16 0
2020-02-17 16:51:01 GMT 41.998020 -87.905312 0 284 19 0
2020-02-17 16:50:58 GMT 41.997952 -87.904984 0 285 19 0
2020-02-17 16:50:55 GMT 41.997890 -87.904648 0 285 18 0
2020-02-17 16:50:52 GMT 41.997810 -87.904289 0 289 18 0
2020-02-17 16:50:49 GMT 41.997719 -87.903969 0 283 19 0
2020-02-17 16:50:46 GMT 41.997700 -87.903648 0 291 18 0
2020-02-17 16:50:43 GMT 41.997601 -87.903351 0 289 20 0
2020-02-17 16:50:40 GMT 41.997540 -87.902992 0 283 18 0
2020-02-17 16:50:37 GMT 41.997459 -87.902718 0 286 17 0
2020-02-17 16:50:34 GMT 41.997398 -87.902382 0 282 17 0
2020-02-17 16:50:31 GMT 41.997341 -87.902100 0 285 16 0
2020-02-17 16:50:28 GMT 41.997261 -87.901779 0 277 13 0
2020-02-17 16:50:25 GMT 41.997231 -87.901527 0 286 12 0
2020-02-17 16:50:22 GMT 41.997211 -87.901337 0 290 13 0
2020-02-17 16:50:19 GMT 41.997139 -87.901123 0 284 11 0
2020-02-17 16:50:16 GMT 41.997101 -87.900932 0 277 11 0
2020-02-17 16:50:13 GMT 41.997059 -87.900742 0 270 11 0
2020-02-17 16:50:10 GMT 41.997021 -87.900543 0 249 12 0
2020-02-17 16:50:07 GMT 41.997101 -87.900307 0 223 7 0
2020-02-17 16:50:04 GMT 41.997150 -87.900200 0 218 10 0
2020-02-17 16:50:01 GMT 41.997269 -87.900124 0 218 16 0
2020-02-17 16:49:58 GMT 41.997440 -87.899963 0 213 18 0
2020-02-17 16:49:55 GMT 41.997669 -87.899727 0 215 20 0
2020-02-17 16:49:52 GMT 41.997879 -87.899529 0 201 14 0
2020-02-17 16:49:49 GMT 41.998058 -87.899384 0 193 16 0
2020-02-17 16:49:46 GMT 41.998268 -87.899307 0 187 14 0
2020-02-17 16:49:43 GMT 41.998482 -87.899223 0 177 15 0
2020-02-17 16:49:40 GMT 41.998680 -87.899208 0 182 14 0
2020-02-17 16:49:37 GMT 41.998909 -87.899178 0 180 13 0
2020-02-17 16:49:34 GMT 41.999081 -87.899170 0 175 13 0
2020-02-17 16:49:31 GMT 41.999260 -87.899193 0 173 14 0
2020-02-17 16:49:28 GMT 41.999439 -87.899239 0 184 17 0
2020-02-17 16:49:25 GMT 41.999680 -87.899200 0 178 16 0
2020-02-17 16:49:22 GMT 41.999889 -87.899200 0 175 15 0
2020-02-17 16:49:19 GMT 42.000118 -87.899223 0 172 16 0
2020-02-17 16:49:16 GMT 42.000568 -87.899384 0 155 15 0
2020-02-17 16:49:13 GMT 42.000568 -87.899384 0 155 18 0
2020-02-17 16:49:10 GMT 42.001011 -87.899628 0 153 17 0
2020-02-17 16:49:07 GMT 42.001011 -87.899628 0 150 17 0
2020-02-17 16:49:04 GMT 42.001221 -87.899757 0 136 20 0
2020-02-17 16:49:01 GMT 42.001419 -87.900009 0 135 22 0
2020-02-17 16:48:58 GMT 42.001839 -87.900574 0 135 24 0
2020-02-17 16:48:55 GMT 42.002079 -87.900940 0 119 26 0
2020-02-17 16:48:52 GMT 42.002079 -87.900940 0 115 30 0
2020-02-17 16:48:49 GMT 42.002281 -87.901398 0 109 29 0
2020-02-17 16:48:46 GMT 42.002411 -87.901909 0 109 27 0
2020-02-17 16:48:43 GMT 42.002571 -87.902359 0 104 32 0
2020-02-17 16:48:40 GMT 42.002682 -87.902969 0 100 34 0
2020-02-17 16:48:37 GMT 42.002762 -87.903526 0 95 33 0
2020-02-17 16:48:34 GMT 42.002811 -87.904129 0 92 39 0
2020-02-17 16:48:31 GMT 42.002819 -87.904793 0 91 37 0
2020-02-17 16:48:28 GMT 42.002831 -87.905602 0 92 45 0
2020-02-17 16:48:25 GMT 42.002850 -87.906380 0 91 42 0
2020-02-17 16:48:22 GMT 42.002861 -87.907173 0 88 45 0
2020-02-17 16:48:16 GMT 42.002838 -87.908836 0 87 39 0
2020-02-17 16:48:13 GMT 42.002838 -87.910622 0 90 58 0
2020-02-17 16:48:07 GMT 42.002892 -87.913078 0 89 77 672
2020-02-17 16:48:04 GMT 42.002850 -87.914642 0 88 83 672
2020-02-17 16:48:01 GMT 42.002819 -87.916359 450 90 100 96
2020-02-17 16:47:58 GMT 42.002819 -87.916359 475 91 107 96
2020-02-17 16:47:55 GMT 42.002899 -87.918190 500 88 117 96
2020-02-17 16:47:52 GMT 42.002861 -87.920349 500 90 120 96
2020-02-17 16:47:49 GMT 42.002869 -87.922592 525 89 119 -672
2020-02-17 16:47:46 GMT 42.002869 -87.924797 575 91 123 -672
2020-02-17 16:47:43 GMT 42.002880 -87.927101 600 90 119 -672
2020-02-17 16:47:40 GMT 42.002869 -87.929382 650 90 128 -672
2020-02-17 16:47:37 GMT 42.002911 -87.933884 700 90 122 -672
2020-02-17 16:47:34 GMT 42.002911 -87.933884 750 89 121 -672
2020-02-17 16:47:31 GMT 42.002918 -87.936157 775 88 119 -672
2020-02-17 16:47:28 GMT 42.002861 -87.938377 800 91 119 -672
2020-02-17 16:47:25 GMT 42.002930 -87.940567 900 89 123 -672
2020-02-17 16:47:22 GMT 42.002911 -87.942841 900 87 120 -672
2020-02-17 16:47:19 GMT 42.002850 -87.945023 900 89 124 -672
2020-02-17 16:47:16 GMT 42.002831 -87.947357 1,000 91 120 -672
2020-02-17 16:47:13 GMT 42.002899 -87.949493 1,000 91 115 -672
2020-02-17 16:47:10 GMT 42.002850 -87.953987 1,000 90 117 -672
2020-02-17 16:47:07 GMT 42.002850 -87.956093 1,100 90 118 -672
2020-02-17 16:47:04 GMT 42.002838 -87.958298 1,100 88 120 -672
2020-02-17 16:46:58 GMT 42.002800 -87.960510 1,200 88 114 -512
2020-02-17 16:46:55 GMT 42.002850 -87.964920 1,200 89 116 -512
2020-02-17 16:46:52 GMT 42.002850 -87.964920 1,200 92 116 -512
2020-02-17 16:46:49 GMT 42.002869 -87.967033 1,300 88 118 -512
2020-02-17 16:46:46 GMT 42.002769 -87.969170 1,300 89 124 -512
2020-02-17 16:46:43 GMT 42.002800 -87.971497 1,300 90 116 -512
2020-02-17 16:46:40 GMT 42.002781 -87.973648 1,300 88 117 -512
2020-02-17 16:46:37 GMT 42.002731 -87.975853 1,400 90 116 -512
2020-02-17 16:46:34 GMT 42.002811 -87.978050 1,400 88 114 -512
2020-02-17 16:46:31 GMT 42.002731 -87.980057 1,500 91 120 -512
2020-02-17 16:46:28 GMT 42.002762 -87.982269 1,475 91 120 -512
2020-02-17 16:46:25 GMT 42.002789 -87.984413 1,475 91 118 -512
2020-02-17 16:46:22 GMT 42.002731 -87.986580 1,500 87 120 -512
2020-02-17 16:46:19 GMT 42.002781 -87.988838 1,600 91 121 -512
2020-02-17 16:46:16 GMT 42.002789 -87.990990 1,600 88 119 -512
2020-02-17 16:46:13 GMT 42.002789 -87.993149 1,700 90 116 -512
2020-02-17 16:46:10 GMT 42.002838 -87.995338 1,700 90 119 -512
2020-02-17 16:46:07 GMT 42.002811 -87.997490 1,700 90 120 -512
2020-02-17 16:46:04 GMT 42.002831 -87.999702 1,700 90 117 -512
2020-02-17 16:46:01 GMT 42.002838 -88.001877 1,800 90 117 -512
2020-02-17 16:45:58 GMT 42.002838 -88.004066 1,800 90 120 -672
2020-02-17 16:45:55 GMT 42.002850 -88.006310 1,800 90 120 -672
2020-02-17 16:45:52 GMT 42.002899 -88.008522 1,900 90 123 -672
2020-02-17 16:45:49 GMT 42.002899 -88.010811 1,900 88 123 -672
2020-02-17 16:45:46 GMT 42.002861 -88.013100 1,900 88 122 -672
2020-02-17 16:45:43 GMT 42.002838 -88.015411 2,000 90 131 -672
2020-02-17 16:45:40 GMT 42.002819 -88.017822 2,000 90 132 -672
2020-02-17 16:45:37 GMT 42.002838 -88.020348 2,100 89 136 -672
2020-02-17 16:45:34 GMT 42.002838 -88.022858 2,100 89 143 -672
2020-02-17 16:45:31 GMT 42.002819 -88.025467 2,200 89 148 -672
2020-02-17 16:45:28 GMT 42.002769 -88.028229 2,200 89 147 -672
2020-02-17 16:45:25 GMT 42.002800 -88.031013 2,200 90 149 -672
2020-02-17 16:45:22 GMT 42.002769 -88.033768 2,300 90 154 -672
2020-02-17 16:45:19 GMT 42.002800 -88.039482 2,300 89 162 -672
2020-02-17 16:45:16 GMT 42.002800 -88.039482 2,300 89 159 -672
2020-02-17 16:45:13 GMT 42.002800 -88.045609 2,400 89 156 -672
2020-02-17 16:45:10 GMT 42.002769 -88.048447 2,400 89 159 -672
2020-02-17 16:45:07 GMT 42.002708 -88.051491 2,500 89 171 -672
2020-02-17 16:45:04 GMT 42.002701 -88.054802 2,600 89 183 -672
2020-02-17 16:45:01 GMT 42.002701 -88.054802 2,600 90 182 -672
2020-02-17 16:44:54 GMT 42.002689 -88.061806 2,650 90 170 -960
2020-02-17 16:44:51 GMT 42.002701 -88.065659 2,700 89 171 -960
2020-02-17 16:44:47 GMT 42.002735 -88.069473 2,725 89 171 -960
2020-02-17 16:44:43 GMT 42.002701 -88.073273 2,825 90 173 -1024
2020-02-17 16:44:40 GMT 42.002735 -88.077011 2,875 90 173 -1024
2020-02-17 16:44:37 GMT 42.002747 -88.080574 3,050 89 176 -1024
2020-02-17 16:44:32 GMT 42.002735 -88.085892 3,125 89 175 -960
2020-02-17 16:44:29 GMT 42.002689 -88.088570 3,050 89 176 -1024
2020-02-17 16:44:26 GMT 42.002689 -88.091766 3,100 90 176 -1024
2020-02-17 16:44:23 GMT 42.002701 -88.096245 3,175 90 176 -1088
2020-02-17 16:44:19 GMT 42.002701 -88.099426 3,225 90 176 -1152
2020-02-17 16:44:16 GMT 42.002689 -88.103386 3,275 90 177 -1152
2020-02-17 16:44:11 GMT 42.002701 -88.109413 3,375 89 177 -1088
2020-02-17 16:44:06 GMT 42.002701 -88.113724 3,425 89 178 -1088
2020-02-17 16:44:03 GMT 42.002655 -88.117592 3,500 89 178 -1024
2020-02-17 16:43:59 GMT 42.002609 -88.126579 3,625 89 179 -960
2020-02-17 16:43:54 GMT 42.002609 -88.126579 3,675 89 179 -896
2020-02-17 16:43:50 GMT 42.002594 -88.132004 3,725 89 179 -832
2020-02-17 16:43:47 GMT 42.002563 -88.138565 3,775 89 179 -832
2020-02-17 16:43:40 GMT 42.002548 -88.142159 3,825 89 179 -704
2020-02-17 16:43:37 GMT 42.002548 -88.151230 3,875 90 178 -128
2020-02-17 16:43:33 GMT 42.002548 -88.151230 3,875 90 179 -64
2020-02-17 16:43:29 GMT 42.002563 -88.154732 3,875 90 179 0
2020-02-17 16:43:26 GMT 42.002563 -88.159103 3,875 90 179 0
2020-02-17 16:43:18 GMT 42.002548 -88.167328 3,875 90 178 0
2020-02-17 16:43:15 GMT 42.002548 -88.176399 3,875 89 178 64
2020-02-17 16:43:10 GMT 42.002548 -88.176399 3,875 89 178 0
2020-02-17 16:43:07 GMT 42.002518 -88.179016 3,875 89 178 0
2020-02-17 16:43:04 GMT 42.002518 -88.182884 3,875 89 179 -64
2020-02-17 16:43:01 GMT 42.002518 -88.186752 3,875 89 179 0
2020-02-17 16:42:57 GMT 42.002518 -88.191185 3,875 90 179 0
2020-02-17 16:42:54 GMT 42.002518 -88.193314 3,875 90 178 0
2020-02-17 16:42:49 GMT 42.002518 -88.199738 3,875 90 177 0
2020-02-17 16:42:46 GMT 42.002518 -88.202614 3,875 89 177 64
2020-02-17 16:42:43 GMT 42.002502 -88.208656 3,875 89 177 0
2020-02-17 16:42:37 GMT 42.002472 -88.213036 3,875 89 178 0
2020-02-17 16:42:34 GMT 42.002426 -88.216217 3,875 89 178 0
2020-02-17 16:42:31 GMT 42.002407 -88.220024 3,875 89 179 0
2020-02-17 16:42:26 GMT 42.002380 -88.224770 3,875 89 178 0
2020-02-17 16:42:23 GMT 42.002361 -88.227882 3,875 89 178 0
2020-02-17 16:42:19 GMT 42.002361 -88.231522 3,875 172 187 0
2020-02-17 16:42:16 GMT 42.002335 -88.236008 3,875 90 177 0
2020-02-17 16:42:12 GMT 42.002335 -88.239319 3,875 91 176 0
2020-02-17 16:42:09 GMT 42.002426 -88.242874 3,875 91 176 0
2020-02-17 16:42:04 GMT 42.002548 -88.249535 3,875 92 177 -64
2020-02-17 16:42:00 GMT 42.002701 -88.253922 3,875 93 177 -64
2020-02-17 16:41:55 GMT 42.003067 -88.262100 3,900 94 176 -128
2020-02-17 16:41:52 GMT 42.003067 -88.262100 3,900 95 176 -64
2020-02-17 16:41:48 GMT 42.003296 -88.265724 3,900 96 176 -64
2020-02-17 16:41:44 GMT 42.003712 -88.270485 3,900 100 175 128
2020-02-17 16:41:41 GMT 42.004131 -88.274254 3,875 101 176 256
2020-02-17 16:41:38 GMT 42.004784 -88.278023 3,875 104 177 -64
2020-02-17 16:41:33 GMT 42.005806 -88.282745 3,875 108 183 0
2020-02-17 16:41:30 GMT 42.007095 -88.288132 3,875 108 187 0
2020-02-17 16:41:23 GMT 42.008366 -88.293289 3,875 108 192 64
2020-02-17 16:41:20 GMT 42.009392 -88.297379 3,850 108 196 64
2020-02-17 16:41:17 GMT 42.009903 -88.299416 3,875 108 198 64
2020-02-17 16:41:14 GMT 42.012268 -88.308670 3,850 109 205 -64
2020-02-17 16:41:10 GMT 42.012268 -88.308670 3,875 109 207 -64
2020-02-17 16:41:02 GMT 42.014790 -88.318520 3,875 109 207 64
2020-02-17 16:40:55 GMT 42.016846 -88.326393 3,875 109 206 0
2020-02-17 16:40:52 GMT 42.018768 -88.333702 3,875 110 207 -64
2020-02-17 16:40:49 GMT 42.020096 -88.338379 3,875 114 205 0
2020-02-17 16:40:42 GMT 42.021515 -88.342690 3,875 117 203 64
2020-02-17 16:40:38 GMT 42.022892 -88.345985 3,875 128 199 64
2020-02-17 16:40:34 GMT 42.025265 -88.350006 3,875 133 197 0
2020-02-17 16:40:29 GMT 42.029526 -88.354546 3,875 154 192 0
2020-02-17 16:40:24 GMT 42.034012 -88.357109 3,875 172 187 0
2020-02-17 16:40:21 GMT 42.035599 -88.357605 3,875 176 187 0
2020-02-17 16:40:18 GMT 42.038254 -88.358116 3,875 176 187 0
2020-02-17 16:40:14 GMT 42.041607 -88.358376 3,875 176 187 0
2020-02-17 16:40:10 GMT 42.049072 -88.358917 3,875 176 188 -64
2020-02-17 16:40:06 GMT 42.049072 -88.358917 3,875 176 188 0
2020-02-17 16:40:02 GMT 42.052643 -88.359169 3,875 176 188 0
2020-02-17 16:39:58 GMT 42.055847 -88.359352 3,875 176 188 0
2020-02-17 16:39:55 GMT 42.058044 -88.359543 3,875 176 188 0
2020-02-17 16:39:51 GMT 42.062302 -88.359856 3,875 177 189 -64
2020-02-17 16:39:44 GMT 42.068188 -88.360229 3,875 182 190 0
2020-02-17 16:39:39 GMT 42.072052 -88.360168 3,875 223 196 0
2020-02-17 16:39:35 GMT 42.076008 -88.359329 3,875 199 191 0
2020-02-17 16:39:32 GMT 42.078613 -88.358116 3,875 205 192 64
2020-02-17 16:39:29 GMT 42.080658 -88.356735 3,875 213 194 0
2020-02-17 16:39:24 GMT 42.084061 -88.353325 3,875 234 199 0
2020-02-17 16:39:21 GMT 42.086060 -88.350365 3,875 245 204 -64
2020-02-17 16:39:17 GMT 42.087879 -88.346558 3,875 245 204 -64
2020-02-17 16:39:11 GMT 42.089928 -88.339912 3,875 263 212 -64
2020-02-17 16:39:08 GMT 42.090672 -88.334869 3,875 268 216 -128
2020-02-17 16:39:04 GMT 42.090958 -88.328957 4,125 270 221 -1600
2020-02-17 16:39:01 GMT 42.090958 -88.324707 3,900 270 219 -256
2020-02-17 16:38:58 GMT 42.090958 -88.321838 3,900 270 220 -448
2020-02-17 16:38:55 GMT 42.090958 -88.313347 4,850 270 222 -1728
2020-02-17 16:38:52 GMT 42.090958 -88.307297 3,975 270 222 -960
2020-02-17 16:38:48 GMT 42.090958 -88.307297 4,075 270 222 -1216
2020-02-17 16:38:41 GMT 42.090950 -88.297821 4,200 270 221 -1664
2020-02-17 16:38:36 GMT 42.090958 -88.291504 4,300 270 221 -1536
2020-02-17 16:38:33 GMT 42.090996 -88.286514 4,425 270 222 -1728
2020-02-17 16:38:28 GMT 42.091049 -88.276016 4,575 270 222 -1792
2020-02-17 16:38:25 GMT 42.091045 -88.272141 4,775 270 222 -1920
2020-02-17 16:38:22 GMT 42.091091 -88.267357 4,775 270 222 -1920
2020-02-17 16:38:19 GMT 42.091091 -88.267357 4,850 270 222 -1920
2020-02-17 16:38:15 GMT 42.091091 -88.261665 4,975 270 222 -1984
2020-02-17 16:38:12 GMT 42.091095 -88.257233 5,150 270 221 -2112
2020-02-17 16:38:08 GMT 42.091183 -88.247490 5,275 270 220 -2112
2020-02-17 16:38:04 GMT 42.091183 -88.247490 5,325 270 220 -1984
2020-02-17 16:38:00 GMT 42.091187 -88.241875 5,450 270 221 -1792
2020-02-17 16:37:57 GMT 42.091228 -88.237778 5,575 270 221 -1664
2020-02-17 16:37:54 GMT 42.091232 -88.232826 5,600 270 221 -1664
2020-02-17 16:37:50 GMT 42.091232 -88.222839 5,775 270 226 -1024
2020-02-17 16:37:47 GMT 42.091232 -88.222839 5,800 270 229 -576
2020-02-17 16:37:44 GMT 42.091278 -88.220085 5,850 270 229 -576
2020-02-17 16:37:41 GMT 42.091278 -88.214096 5,875 270 239 0
2020-02-17 16:37:37 GMT 42.091278 -88.209793 5,875 270 236 -64
2020-02-17 16:37:34 GMT 42.091278 -88.204987 5,875 270 239 0
2020-02-17 16:37:30 GMT 42.091278 -88.193321 5,850 270 247 192
2020-02-17 16:37:26 GMT 42.091278 -88.193321 5,850 270 256 64
2020-02-17 16:37:23 GMT 42.091278 -88.187897 5,850 270 264 -128
2020-02-17 16:37:17 GMT 42.091278 -88.178444 5,850 270 261 0
2020-02-17 16:37:14 GMT 42.091278 -88.174644 5,875 270 265 -128
2020-02-17 16:37:11 GMT 42.091278 -88.169884 5,875 270 266 0
2020-02-17 16:37:08 GMT 42.091324 -88.158318 5,875 270 266 0
2020-02-17 16:37:04 GMT 42.091324 -88.158318 5,875 270 266 0
2020-02-17 16:37:01 GMT 42.091370 -88.152702 5,875 270 266 -64
2020-02-17 16:36:57 GMT 42.091370 -88.144745 5,875 270 267 0
2020-02-17 16:36:54 GMT 42.091415 -88.140434 5,875 270 268 64
2020-02-17 16:36:51 GMT 42.091415 -88.135757 5,875 270 269 64
2020-02-17 16:36:48 GMT 42.091415 -88.125237 5,875 270 271 64
2020-02-17 16:36:42 GMT 42.091461 -88.114967 5,875 270 271 64
2020-02-17 16:36:39 GMT 42.091461 -88.114967 5,875 270 269 -64
2020-02-17 16:36:36 GMT 42.091461 -88.110924 5,875 270 269 -64
2020-02-17 16:36:30 GMT 42.091461 -88.100838 5,875 270 269 -64
2020-02-17 16:36:24 GMT 42.091507 -88.091316 5,900 270 269 -256
2020-02-17 16:36:20 GMT 42.091557 -88.083778 5,900 270 269 -192
2020-02-17 16:36:17 GMT 42.091557 -88.080269 5,950 270 267 -448
2020-02-17 16:36:14 GMT 42.091644 -88.069466 5,975 270 267 -640
2020-02-17 16:36:08 GMT 42.091736 -88.055733 6,075 270 265 -1536
2020-02-17 16:36:04 GMT 42.091736 -88.055733 6,150 270 266 -1408
2020-02-17 16:36:01 GMT 42.091736 -88.048615 6,150 270 265 -1600
2020-02-17 16:35:54 GMT 42.091736 -88.040878 6,350 270 263 -1984
2020-02-17 16:35:51 GMT 42.091743 -88.036324 6,525 270 263 -1920
2020-02-17 16:35:48 GMT 42.091736 -88.032387 6,500 270 263 -1728
2020-02-17 16:35:44 GMT 42.091743 -88.024887 6,625 271 263 -1280
2020-02-17 16:35:41 GMT 42.091736 -88.019966 6,700 271 264 -1088
2020-02-17 16:35:38 GMT 42.091690 -88.015533 6,750 270 264 -960
2020-02-17 16:35:34 GMT 42.091690 -88.007477 6,825 270 266 -512
2020-02-17 16:35:31 GMT 42.091690 -88.001549 6,825 270 266 -384
2020-02-17 16:35:28 GMT 42.091694 -87.998444 6,850 270 267 -256
2020-02-17 16:35:22 GMT 42.091736 -87.987694 6,875 270 267 0
2020-02-17 16:35:18 GMT 42.091736 -87.981010 6,875 270 267 0
2020-02-17 16:35:13 GMT 42.091789 -87.973404 6,875 270 267 0
2020-02-17 16:35:10 GMT 42.091782 -87.967407 6,875 270 267 0
2020-02-17 16:35:07 GMT 42.091789 -87.963760 6,875 270 267 0
2020-02-17 16:35:04 GMT 42.091782 -87.958420 6,875 271 268 0
2020-02-17 16:35:00 GMT 42.091736 -87.951111 6,875 271 268 64
2020-02-17 16:34:57 GMT 42.091743 -87.946770 6,875 271 268 0
2020-02-17 16:34:54 GMT 42.091743 -87.940956 6,875 271 268 0
2020-02-17 16:34:51 GMT 42.091690 -87.935822 6,875 271 268 0
2020-02-17 16:34:47 GMT 42.091694 -87.928436 6,875 271 268 0
2020-02-17 16:34:42 GMT 42.091690 -87.920341 6,875 271 267 0
2020-02-17 16:34:36 GMT 42.091644 -87.912163 6,875 271 266 0
2020-02-17 16:34:32 GMT 42.091648 -87.905891 6,875 271 266 0
2020-02-17 16:34:29 GMT 42.091648 -87.899757 6,875 270 266 0
2020-02-17 16:34:26 GMT 42.091599 -87.893311 6,875 271 266 0
2020-02-17 16:34:20 GMT 42.091602 -87.884682 6,875 271 267 0
2020-02-17 16:34:17 GMT 42.091599 -87.880386 6,875 271 266 0
2020-02-17 16:34:14 GMT 42.091553 -87.873772 6,875 271 267 0
2020-02-17 16:34:11 GMT 42.091507 -87.869461 6,875 271 267 0
2020-02-17 16:34:08 GMT 42.091461 -87.865456 6,875 271 268 0
2020-02-17 16:34:05 GMT 42.091415 -87.860664 6,875 271 269 0
2020-02-17 16:34:01 GMT 42.091370 -87.855171 6,875 271 269 0
2020-02-17 16:33:58 GMT 42.091324 -87.848114 6,875 271 271 0
2020-02-17 16:33:55 GMT 42.091278 -87.842873 6,875 271 271 0
2020-02-17 16:33:51 GMT 42.091232 -87.837692 6,875 271 272 -64
2020-02-17 16:33:48 GMT 42.091183 -87.831093 6,875 270 272 0
2020-02-17 16:33:45 GMT 42.091324 -87.821640 6,875 268 271 -64
2020-02-17 16:33:42 GMT 42.091602 -87.815575 6,875 265 270 64
2020-02-17 16:33:39 GMT 42.091602 -87.815575 6,875 264 269 64
2020-02-17 16:33:35 GMT 42.092010 -87.810097 6,900 255 266 -128
2020-02-17 16:33:32 GMT 42.092789 -87.805107 6,925 246 259 -256
2020-02-17 16:33:28 GMT 42.094257 -87.799286 6,900 244 258 -256
2020-02-17 16:33:25 GMT 42.096397 -87.793602 6,925 242 257 -384
2020-02-17 16:33:21 GMT 42.098213 -87.789894 6,950 235 253 -576
2020-02-17 16:33:18 GMT 42.102310 -87.783318 7,200 219 250 -1344
2020-02-17 16:33:12 GMT 42.105244 -87.779800 7,150 219 249 -1472
2020-02-17 16:33:09 GMT 42.107475 -87.777374 7,225 219 250 -1280
2020-02-17 16:33:06 GMT 42.111465 -87.773148 7,275 219 250 -1280
2020-02-17 16:33:03 GMT 42.114414 -87.770096 7,300 219 251 -1280
2020-02-17 16:33:00 GMT 42.116322 -87.768051 7,400 219 252 -1344
2020-02-17 16:32:57 GMT 42.119614 -87.764534 7,475 219 253 -1344
2020-02-17 16:32:53 GMT 42.122635 -87.761345 7,550 219 254 -1408
2020-02-17 16:32:49 GMT 42.130196 -87.753296 7,700 219 254 -1472
2020-02-17 16:32:45 GMT 42.130196 -87.753296 7,875 219 254 -1728
2020-02-17 16:32:42 GMT 42.135826 -87.747292 7,925 219 254 -1728
2020-02-17 16:32:35 GMT 42.139160 -87.743805 7,975 219 254 -1728
2020-02-17 16:32:32 GMT 42.141861 -87.740936 8,175 218 253 -1728
2020-02-17 16:32:29 GMT 42.144253 -87.738411 8,950 218 251 -1792
2020-02-17 16:32:26 GMT 42.148727 -87.733818 8,300 218 253 -1728
2020-02-17 16:32:20 GMT 42.154030 -87.728317 8,475 218 253 -1856
2020-02-17 16:32:14 GMT 42.159851 -87.722275 8,675 218 253 -1856
2020-02-17 16:32:11 GMT 42.164410 -87.717529 8,775 218 251 -1920
2020-02-17 16:32:03 GMT 42.169281 -87.712471 8,975 218 251 -1792
2020-02-17 16:32:00 GMT 42.172852 -87.708725 9,175 218 251 -1600
2020-02-17 16:31:53 GMT 42.182739 -87.698425 9,300 218 253 -1408
2020-02-17 16:31:49 GMT 42.182739 -87.698425 9,375 218 253 -1344
2020-02-17 16:31:41 GMT 42.190151 -87.690697 9,525 219 255 -1152
2020-02-17 16:31:34 GMT 42.196381 -87.684067 9,675 219 259 -1024
2020-02-17 16:31:30 GMT 42.199860 -87.680389 9,800 219 264 -640
2020-02-17 16:31:27 GMT 42.208218 -87.671600 9,850 218 267 -512
2020-02-17 16:31:21 GMT 42.208218 -87.671600 9,825 218 265 -576
2020-02-17 16:31:18 GMT 42.211243 -87.668404 9,875 218 270 -384
2020-02-17 16:31:11 GMT 42.218719 -87.660538 9,875 218 278 -64
2020-02-17 16:31:06 GMT 42.223160 -87.655891 9,875 219 287 0
2020-02-17 16:31:03 GMT 42.226868 -87.652046 9,875 219 285 0
2020-02-17 16:30:59 GMT 42.231033 -87.647614 9,875 218 292 64
2020-02-17 16:30:56 GMT 42.233261 -87.645287 9,875 218 294 64
2020-02-17 16:30:52 GMT 42.238724 -87.639565 9,850 218 301 64
2020-02-17 16:30:48 GMT 42.242157 -87.636002 9,850 218 310 0
2020-02-17 16:30:41 GMT 42.250904 -87.626823 9,850 219 313 -64
2020-02-17 16:30:38 GMT 42.254440 -87.623055 9,875 219 314 0
2020-02-17 16:30:29 GMT 42.264126 -87.612839 9,875 219 313 0
2020-02-17 16:30:26 GMT 42.267105 -87.609665 9,875 219 313 0
2020-02-17 16:30:23 GMT 42.270081 -87.606544 9,875 219 313 0
2020-02-17 16:30:19 GMT 42.274292 -87.602051 9,875 219 313 0
2020-02-17 16:30:16 GMT 42.281342 -87.594559 9,875 219 313 0
2020-02-17 16:30:10 GMT 42.290848 -87.584602 9,875 218 312 0
2020-02-17 16:30:05 GMT 42.290848 -87.584602 9,875 218 312 0
2020-02-17 16:29:59 GMT 42.297688 -87.577454 9,875 218 312 -64
2020-02-17 16:29:56 GMT 42.302261 -87.572647 9,875 218 312 -64
2020-02-17 16:29:53 GMT 42.304916 -87.569901 9,875 219 311 -64
2020-02-17 16:29:48 GMT 42.310398 -87.564232 9,875 218 311 -64
2020-02-17 16:29:43 GMT 42.316406 -87.557854 9,875 221 309 64
2020-02-17 16:29:37 GMT 42.321987 -87.551773 9,875 221 309 64
2020-02-17 16:29:34 GMT 42.326202 -87.547050 9,850 231 308 -64
2020-02-17 16:29:31 GMT 42.328552 -87.544235 9,875 232 308 0
2020-02-17 16:29:28 GMT 42.332603 -87.539001 9,850 229 308 64
2020-02-17 16:29:25 GMT 42.335541 -87.534256 9,875 242 308 0
2020-02-17 16:29:21 GMT 42.337967 -87.529701 9,850 237 307 0
2020-02-17 16:29:18 GMT 42.341122 -87.522392 9,850 246 307 -64
2020-02-17 16:29:15 GMT 42.344662 -87.511597 9,875 249 309 0
2020-02-17 16:29:12 GMT 42.344662 -87.511597 9,875 250 309 0
2020-02-17 16:29:06 GMT 42.349129 -87.495438 9,875 250 309 64
2020-02-17 16:29:03 GMT 42.349129 -87.495438 9,875 250 309 0
2020-02-17 16:28:57 GMT 42.351746 -87.486008 9,875 250 309 0
2020-02-17 16:28:54 GMT 42.353622 -87.479324 9,875 250 309 0
2020-02-17 16:28:50 GMT 42.355225 -87.473709 9,875 250 309 -64
2020-02-17 16:28:46 GMT 42.357510 -87.465416 9,875 250 310 0
2020-02-17 16:28:43 GMT 42.359512 -87.458328 9,875 250 310 0
2020-02-17 16:28:36 GMT 42.362907 -87.445999 9,875 250 310 0
2020-02-17 16:28:32 GMT 42.364792 -87.439125 9,875 250 310 0
2020-02-17 16:28:24 GMT 42.368088 -87.427261 9,875 250 311 0
2020-02-17 16:28:20 GMT 42.373428 -87.407928 9,875 250 311 -128
2020-02-17 16:28:15 GMT 42.373428 -87.407928 9,875 250 311 -128
2020-02-17 16:28:12 GMT 42.375057 -87.401924 9,875 250 311 -192
2020-02-17 16:28:04 GMT 42.378269 -87.390427 10,150 250 309 -576
2020-02-17 16:28:01 GMT 42.380493 -87.382446 9,950 250 309 -576
2020-02-17 16:27:54 GMT 42.385620 -87.363846 10,050 250 306 -1344
2020-02-17 16:27:50 GMT 42.385620 -87.363846 10,075 250 306 -1216
2020-02-17 16:27:39 GMT 42.393723 -87.334381 10,525 250 309 -1600
2020-02-17 16:27:33 GMT 42.394043 -87.333069 10,575 250 309 -1600
2020-02-17 16:27:28 GMT 42.396053 -87.325851 10,650 250 310 -1344
2020-02-17 16:27:23 GMT 42.401314 -87.306686 10,800 250 312 -832
2020-02-17 16:27:19 GMT 42.401314 -87.306686 10,825 250 312 -512
2020-02-17 16:27:15 GMT 42.403152 -87.300110 10,850 250 312 -256
2020-02-17 16:27:12 GMT 42.404572 -87.294998 10,850 250 313 -64
2020-02-17 16:27:08 GMT 42.409103 -87.278641 10,875 250 313 -64
2020-02-17 16:27:03 GMT 42.409103 -87.278641 10,875 250 313 -64
2020-02-17 16:27:00 GMT 42.412533 -87.266380 10,875 250 313 0
2020-02-17 16:26:57 GMT 42.414581 -87.258850 10,875 250 313 0
2020-02-17 16:26:53 GMT 42.414581 -87.258850 10,875 250 313 0
2020-02-17 16:26:50 GMT 42.417801 -87.247047 10,875 250 313 64
2020-02-17 16:26:45 GMT 42.417801 -87.247047 10,875 250 313 64
2020-02-17 16:26:41 GMT 42.422699 -87.229195 10,850 250 313 64
2020-02-17 16:26:33 GMT 42.424759 -87.221710 10,850 250 313 0
2020-02-17 16:26:30 GMT 42.425812 -87.217834 10,850 250 313 0
2020-02-17 16:26:27 GMT 42.427780 -87.210655 10,850 250 313 0
2020-02-17 16:26:22 GMT 42.430069 -87.202354 10,875 250 313 0
2020-02-17 16:26:18 GMT 42.432220 -87.194427 10,875 250 313 0
2020-02-17 16:26:15 GMT 42.433155 -87.190948 10,875 250 313 0
2020-02-17 16:26:10 GMT 42.438080 -87.172958 10,875 250 313 0
2020-02-17 16:26:06 GMT 42.438080 -87.172958 10,900 250 313 0
2020-02-17 16:26:01 GMT 42.440735 -87.163216 10,875 250 313 -64
2020-02-17 16:25:57 GMT 42.444168 -87.150925 10,900 250 313 -128
2020-02-17 16:25:50 GMT 42.448105 -87.136627 10,900 250 314 -192
2020-02-17 16:25:45 GMT 42.448105 -87.136627 10,900 250 314 -192
2020-02-17 16:25:42 GMT 42.449730 -87.130905 10,925 250 316 -192
2020-02-17 16:25:39 GMT 42.451080 -87.125923 10,925 250 318 -448
2020-02-17 16:25:36 GMT 42.453323 -87.117714 10,950 250 320 -768
2020-02-17 16:25:30 GMT 42.456573 -87.106102 11,050 250 323 -1280
2020-02-17 16:25:24 GMT 42.459785 -87.094307 11,175 250 327 -1728
2020-02-17 16:25:19 GMT 42.461975 -87.086441 11,300 250 328 -2048
2020-02-17 16:25:16 GMT 42.463257 -87.081879 11,550 250 329 -2176
2020-02-17 16:25:13 GMT 42.465511 -87.073807 11,550 250 329 -2176
2020-02-17 16:25:10 GMT 42.467186 -87.067802 12,050 250 331 -2240
2020-02-17 16:25:07 GMT 42.468979 -87.061218 11,800 250 330 -2176
2020-02-17 16:25:02 GMT 42.471176 -87.053291 11,950 250 330 -2240
2020-02-17 16:24:59 GMT 42.473053 -87.046547 12,075 250 331 -2176
2020-02-17 16:24:56 GMT 42.474380 -87.041679 12,150 251 330 -2176
2020-02-17 16:24:52 GMT 42.476265 -87.034714 12,300 251 331 -2240
2020-02-17 16:24:46 GMT 42.479691 -87.021828 12,550 251 332 -2240
2020-02-17 16:24:42 GMT 42.481659 -87.014404 12,725 250 333 -2176
2020-02-17 16:24:39 GMT 42.483479 -87.007568 12,825 250 333 -2176
2020-02-17 16:24:32 GMT 42.487106 -86.994057 13,075 250 333 -2176
2020-02-17 16:24:27 GMT 42.489250 -86.986237 13,200 250 333 -2176
2020-02-17 16:24:23 GMT 42.491913 -86.976448 13,400 250 333 -2240
2020-02-17 16:24:20 GMT 42.492828 -86.973145 13,575 250 334 -2176
2020-02-17 16:24:17 GMT 42.494888 -86.965462 13,600 250 334 -2176
2020-02-17 16:24:13 GMT 42.497025 -86.957619 13,750 250 334 -2112
2020-02-17 16:24:10 GMT 42.498749 -86.951164 13,875 250 334 -2176
2020-02-17 16:24:07 GMT 42.500237 -86.945671 13,975 251 337 -1024
2020-02-17 16:24:01 GMT 42.503632 -86.933067 14,125 250 335 -1088
2020-02-17 16:23:57 GMT 42.505280 -86.926949 14,325 250 335 -1344
2020-02-17 16:23:54 GMT 42.509445 -86.911591 14,375 250 335 -1088
2020-02-17 16:23:49 GMT 42.509445 -86.911591 14,400 250 336 -1024
2020-02-17 16:23:46 GMT 42.511826 -86.902916 14,475 251 337 -1024
2020-02-17 16:23:41 GMT 42.514297 -86.893555 14,550 251 338 -1024
2020-02-17 16:23:38 GMT 42.516174 -86.886627 14,575 251 338 -1024
2020-02-17 16:23:35 GMT 42.517273 -86.882439 14,675 250 338 -1024
2020-02-17 16:23:31 GMT 42.518906 -86.876434 14,800 250 339 -1024
2020-02-17 16:23:28 GMT 42.522858 -86.861969 14,925 250 339 -1024
2020-02-17 16:23:25 GMT 42.522858 -86.861969 14,825 250 339 -1024
2020-02-17 16:23:19 GMT 42.525696 -86.851357 14,950 250 339 -1024
2020-02-17 16:23:16 GMT 42.527618 -86.844368 14,975 250 339 -1024
2020-02-17 16:23:12 GMT 42.530045 -86.835373 15,050 250 340 -1024
2020-02-17 16:23:08 GMT 42.531601 -86.829567 15,100 250 340 -1024
2020-02-17 16:23:04 GMT 42.534176 -86.819969 15,175 251 340 -1024
2020-02-17 16:22:58 GMT 42.537434 -86.807961 15,275 250 340 -960
2020-02-17 16:22:54 GMT 42.539158 -86.801575 15,400 250 340 -960
2020-02-17 16:22:47 GMT 42.542927 -86.787582 15,450 250 339 -960
2020-02-17 16:22:44 GMT 42.544788 -86.780556 15,500 250 339 -1024
2020-02-17 16:22:38 GMT 42.548141 -86.768166 15,600 250 338 -1024
2020-02-17 16:22:34 GMT 42.551212 -86.756859 15,700 250 338 -1024
2020-02-17 16:22:27 GMT 42.553822 -86.747276 15,825 251 338 -1024
2020-02-17 16:22:24 GMT 42.555355 -86.741722 15,825 251 339 -1024
2020-02-17 16:22:21 GMT 42.557125 -86.735146 15,900 252 339 -1024
2020-02-17 16:22:18 GMT 42.558563 -86.729507 16,000 254 338 -1024
2020-02-17 16:22:14 GMT 42.561859 -86.715340 16,025 254 338 -1024
2020-02-17 16:22:06 GMT 42.563919 -86.705292 16,175 256 338 -1024
2020-02-17 16:22:02 GMT 42.565613 -86.696487 16,225 256 338 -1024
2020-02-17 16:21:59 GMT 42.567993 -86.684128 16,350 256 338 -1024
2020-02-17 16:21:56 GMT 42.567993 -86.684128 16,325 256 338 -1024
2020-02-17 16:21:52 GMT 42.569462 -86.676315 16,375 256 338 -1024
2020-02-17 16:21:49 GMT 42.570831 -86.669334 16,425 256 338 -1024
2020-02-17 16:21:46 GMT 42.572021 -86.663155 16,550 256 338 -1024
2020-02-17 16:21:43 GMT 42.573029 -86.657845 16,575 256 338 -1024
2020-02-17 16:21:40 GMT 42.574631 -86.649422 16,575 256 338 -1024
2020-02-17 16:21:37 GMT 42.575840 -86.642845 16,650 256 338 -1024
2020-02-17 16:21:33 GMT 42.577011 -86.636688 16,700 256 338 -1024
2020-02-17 16:21:29 GMT 42.578659 -86.627884 16,775 256 337 -960
2020-02-17 16:21:23 GMT 42.581799 -86.611099 16,900 256 337 -1024
2020-02-17 16:21:17 GMT 42.583374 -86.602669 16,975 256 337 -960
2020-02-17 16:21:11 GMT 42.585114 -86.593491 17,025 256 337 -1024
2020-02-17 16:21:07 GMT 42.587173 -86.582626 17,125 256 337 -1024
2020-02-17 16:21:04 GMT 42.588409 -86.576096 17,150 256 337 -1024
2020-02-17 16:21:01 GMT 42.589153 -86.572006 17,375 256 336 -1024
2020-02-17 16:20:56 GMT 42.591526 -86.559296 17,325 256 336 -1024
2020-02-17 16:20:51 GMT 42.592987 -86.551605 17,400 256 336 -1024
2020-02-17 16:20:47 GMT 42.594601 -86.543015 17,475 256 336 -1024
2020-02-17 16:20:44 GMT 42.596008 -86.535683 17,550 256 336 -1024
2020-02-17 16:20:41 GMT 42.596970 -86.530571 17,575 256 336 -1024
2020-02-17 16:20:35 GMT 42.599628 -86.516441 17,700 256 337 -1024
2020-02-17 16:20:31 GMT 42.601181 -86.508286 17,775 256 337 -1024
2020-02-17 16:20:26 GMT 42.602783 -86.499855 17,850 256 338 -1024
2020-02-17 16:20:20 GMT 42.605167 -86.487373 17,950 256 338 -1024
2020-02-17 16:20:16 GMT 42.606750 -86.478943 18,050 256 338 -960
2020-02-17 16:20:13 GMT 42.607910 -86.472763 18,050 256 338 -960
2020-02-17 16:20:09 GMT 42.609375 -86.464714 18,125 256 339 -960
2020-02-17 16:20:03 GMT 42.613033 -86.445152 18,275 256 341 -960
2020-02-17 16:20:00 GMT 42.613033 -86.445152 18,300 256 341 -960
2020-02-17 16:19:54 GMT 42.615410 -86.432701 18,375 256 343 -1024
2020-02-17 16:19:51 GMT 42.616154 -86.428551 18,450 256 345 -896
2020-02-17 16:19:47 GMT 42.617752 -86.419952 18,475 256 350 -1024
2020-02-17 16:19:44 GMT 42.619038 -86.413216 18,550 256 351 -1024
2020-02-17 16:19:41 GMT 42.620270 -86.406662 18,675 256 355 -1024
2020-02-17 16:19:38 GMT 42.621693 -86.399040 18,600 256 364 -1536
2020-02-17 16:19:34 GMT 42.623932 -86.387184 18,700 256 359 -1152
2020-02-17 16:19:28 GMT 42.625534 -86.378693 18,750 256 361 -1344
2020-02-17 16:19:22 GMT 42.628372 -86.363716 18,975 256 366 -1472
2020-02-17 16:19:17 GMT 42.629887 -86.355667 19,175 256 366 -1664
2020-02-17 16:19:12 GMT 42.632214 -86.343468 19,225 256 366 -1728
2020-02-17 16:19:09 GMT 42.633423 -86.337021 19,300 256 366 -1792
2020-02-17 16:19:06 GMT 42.634964 -86.329002 19,350 256 366 -1792
2020-02-17 16:19:03 GMT 42.636589 -86.320541 19,550 256 365 -1600
2020-02-17 16:19:00 GMT 42.637753 -86.314537 19,600 256 364 -1536
2020-02-17 16:18:57 GMT 42.638580 -86.310341 19,650 256 364 -1472
2020-02-17 16:18:51 GMT 42.640827 -86.298370 19,800 256 364 -1344
2020-02-17 16:18:48 GMT 42.642105 -86.291740 19,825 256 364 -1728
2020-02-17 16:18:44 GMT 42.643757 -86.282913 19,925 257 364 -2048
2020-02-17 16:18:40 GMT 42.645447 -86.273636 20,700 257 365 -2496
2020-02-17 16:18:37 GMT 42.646866 -86.265831 20,425 257 366 -3328
2020-02-17 16:18:30 GMT 42.651627 -86.238869 20,725 257 361 -3776
2020-02-17 16:18:26 GMT 42.651627 -86.238869 20,925 257 363 -3840
2020-02-17 16:18:21 GMT 42.653347 -86.229134 21,200 257 358 -3136
2020-02-17 16:18:18 GMT 42.655441 -86.217575 21,450 256 348 -2240
2020-02-17 16:18:15 GMT 42.655441 -86.217575 21,475 257 355 -2368
2020-02-17 16:18:08 GMT 42.658356 -86.201416 21,750 256 346 -3072
2020-02-17 16:18:04 GMT 42.660049 -86.192299 21,875 256 348 -2176
2020-02-17 16:18:01 GMT 42.661926 -86.182373 22,175 256 346 -2624
2020-02-17 16:17:55 GMT 42.663712 -86.172890 22,275 256 346 -3072
2020-02-17 16:17:52 GMT 42.664352 -86.169266 22,350 256 346 -2944
2020-02-17 16:17:48 GMT 42.666687 -86.157097 22,650 256 346 -3008
2020-02-17 16:17:44 GMT 42.668198 -86.148842 22,925 256 347 -3136
2020-02-17 16:17:40 GMT 42.669361 -86.142715 23,100 256 347 -3072
2020-02-17 16:17:36 GMT 42.670853 -86.134682 23,950 257 351 -3072
2020-02-17 16:17:33 GMT 42.672062 -86.128403 23,300 256 347 -3136
2020-02-17 16:17:30 GMT 42.673691 -86.119514 23,500 256 347 -3136
2020-02-17 16:17:26 GMT 42.674950 -86.112755 23,675 256 348 -3136
2020-02-17 16:17:23 GMT 42.676159 -86.106178 23,875 256 348 -3136
2020-02-17 16:17:15 GMT 42.679279 -86.089188 24,300 256 349 -3136
2020-02-17 16:17:12 GMT 42.680256 -86.084145 24,375 256 349 -3136
2020-02-17 16:17:08 GMT 42.682114 -86.074135 25,225 257 352 -2944
2020-02-17 16:17:05 GMT 42.683533 -86.066208 24,850 257 351 -3072
2020-02-17 16:17:02 GMT 42.684402 -86.061523 25,200 256 354 -3008
2020-02-17 16:16:57 GMT 42.686356 -86.050865 25,375 256 354 -3008
2020-02-17 16:16:52 GMT 42.688065 -86.041428 25,350 257 353 -3008
2020-02-17 16:16:49 GMT 42.689621 -86.032997 25,650 256 354 -3008
2020-02-17 16:16:45 GMT 42.691177 -86.024574 25,775 256 354 -3008
2020-02-17 16:16:41 GMT 42.692734 -86.016144 26,850 257 356 -3008
2020-02-17 16:16:36 GMT 42.694611 -86.005966 26,300 257 357 -3072
2020-02-17 16:16:33 GMT 42.695572 -86.000725 26,350 257 360 -3520
2020-02-17 16:16:30 GMT 42.696945 -85.993111 26,850 257 359 -3264
2020-02-17 16:16:26 GMT 42.698730 -85.983315 26,725 257 359 -3264
2020-02-17 16:16:23 GMT 42.699554 -85.978691 26,925 257 360 -3520
2020-02-17 16:16:20 GMT 42.701111 -85.969955 27,150 257 360 -3520
2020-02-17 16:16:17 GMT 42.703579 -85.956520 27,500 256 362 -3264
2020-02-17 16:16:14 GMT 42.704929 -85.949242 28,450 257 365 -3648
2020-02-17 16:16:07 GMT 42.706558 -85.940361 27,850 257 365 -3200
2020-02-17 16:16:04 GMT 42.709351 -85.924759 28,075 257 366 -3840
2020-02-17 16:16:00 GMT 42.709351 -85.924759 28,275 257 366 -3968
2020-02-17 16:15:56 GMT 42.712189 -85.908936 28,625 257 365 -3904
2020-02-17 16:15:53 GMT 42.712189 -85.908936 28,775 257 365 -3840
2020-02-17 16:15:48 GMT 42.715530 -85.890678 29,125 257 365 -3520
2020-02-17 16:15:44 GMT 42.715530 -85.890678 29,275 257 364 -3392
2020-02-17 16:15:40 GMT 42.718140 -85.876442 31,500 257 365 -2880
2020-02-17 16:15:34 GMT 42.719833 -85.867142 29,800 257 366 -2752
2020-02-17 16:15:29 GMT 42.721481 -85.857964 29,975 257 366 -2496
2020-02-17 16:15:25 GMT 42.724731 -85.840111 30,225 257 366 -2304
2020-02-17 16:15:22 GMT 42.724731 -85.840111 30,300 256 366 -2240
2020-02-17 16:15:16 GMT 42.728165 -85.821640 30,550 256 366 -1856
2020-02-17 16:15:13 GMT 42.728165 -85.821640 30,600 256 366 -1792
2020-02-17 16:15:09 GMT 42.730133 -85.810898 30,725 256 365 -1408
2020-02-17 16:15:05 GMT 42.731602 -85.802902 30,800 257 365 -1216
2020-02-17 16:15:00 GMT 42.733139 -85.794662 30,900 257 365 -960
2020-02-17 16:14:57 GMT 42.734722 -85.785980 30,925 257 365 -960
2020-02-17 16:14:54 GMT 42.735699 -85.780609 30,975 257 365 -960
2020-02-17 16:14:50 GMT 42.737228 -85.772133 31,050 257 365 -960
2020-02-17 16:14:45 GMT 42.739746 -85.758339 31,150 257 365 -960
2020-02-17 16:14:41 GMT 42.740982 -85.751411 31,175 257 365 -960
2020-02-17 16:14:37 GMT 42.742630 -85.742294 31,525 257 364 -960
2020-02-17 16:14:33 GMT 42.744324 -85.732750 31,325 257 365 -960
2020-02-17 16:14:30 GMT 42.745850 -85.724274 31,400 257 365 -960
2020-02-17 16:14:27 GMT 42.746639 -85.719803 31,475 257 364 -896
2020-02-17 16:14:22 GMT 42.749039 -85.706657 31,525 257 364 -896
2020-02-17 16:14:19 GMT 42.749771 -85.702660 31,550 257 364 -960
2020-02-17 16:14:16 GMT 42.751236 -85.694420 31,650 257 364 -960
2020-02-17 16:14:12 GMT 42.752552 -85.687355 31,650 257 364 -960
2020-02-17 16:14:08 GMT 42.754257 -85.678001 31,700 257 364 -960
2020-02-17 16:14:05 GMT 42.755436 -85.671326 31,750 257 364 -1024
2020-02-17 16:14:02 GMT 42.756592 -85.664894 31,800 257 365 -1024
2020-02-17 16:13:58 GMT 42.758183 -85.655991 31,850 257 365 -1024
2020-02-17 16:13:55 GMT 42.759396 -85.649094 31,925 257 365 -768
2020-02-17 16:13:52 GMT 42.760651 -85.642197 31,950 257 365 -512
2020-02-17 16:13:48 GMT 42.763321 -85.627502 32,000 257 365 -64
2020-02-17 16:13:45 GMT 42.764969 -85.618324 32,000 257 365 -64
2020-02-17 16:13:42 GMT 42.764969 -85.618324 32,000 257 365 0
2020-02-17 16:13:38 GMT 42.766796 -85.608345 32,000 257 365 0
2020-02-17 16:13:34 GMT 42.767944 -85.601845 32,000 257 365 0
2020-02-17 16:13:31 GMT 42.769077 -85.595634 32,000 257 365 0
2020-02-17 16:13:28 GMT 42.770508 -85.587616 32,000 257 366 0
2020-02-17 16:13:25 GMT 42.771790 -85.580254 32,000 257 366 0
2020-02-17 16:13:20 GMT 42.773163 -85.572632 32,000 257 366 0
2020-02-17 16:13:17 GMT 42.774536 -85.564835 32,000 257 366 0
2020-02-17 16:13:14 GMT 42.775864 -85.557465 32,000 257 366 0
2020-02-17 16:13:11 GMT 42.777363 -85.548943 32,000 257 366 0
2020-02-17 16:13:07 GMT 42.778576 -85.542046 32,000 257 366 0
2020-02-17 16:13:04 GMT 42.780075 -85.533745 32,000 257 366 0
2020-02-17 16:13:00 GMT 42.781319 -85.526649 32,000 257 366 -64
2020-02-17 16:12:57 GMT 42.782593 -85.519447 32,000 257 366 0
2020-02-17 16:12:54 GMT 42.784241 -85.510277 32,000 257 366 0
2020-02-17 16:12:50 GMT 42.785789 -85.501350 32,000 257 366 0
2020-02-17 16:12:46 GMT 42.787094 -85.493942 32,000 257 366 -64
2020-02-17 16:12:43 GMT 42.789700 -85.479126 32,000 257 366 0
2020-02-17 16:12:40 GMT 42.789700 -85.479126 32,000 257 366 0
2020-02-17 16:12:36 GMT 42.791237 -85.470375 32,000 257 366 0
2020-02-17 16:12:32 GMT 42.792770 -85.461624 32,000 257 367 0
2020-02-17 16:12:29 GMT 42.793900 -85.455154 32,000 257 367 0
2020-02-17 16:12:25 GMT 42.795380 -85.446617 32,000 257 367 0
2020-02-17 16:12:21 GMT 42.798080 -85.431282 32,000 257 368 0
2020-02-17 16:12:18 GMT 42.798080 -85.431282 32,000 257 368 0
2020-02-17 16:12:14 GMT 42.799522 -85.422981 32,000 257 369 0
2020-02-17 16:12:11 GMT 42.801151 -85.413780 32,000 257 369 0
2020-02-17 16:12:08 GMT 42.802410 -85.406754 32,000 257 369 0
2020-02-17 16:12:04 GMT 42.803833 -85.398666 32,000 257 369 0
2020-02-17 16:12:00 GMT 42.806351 -85.384247 32,000 257 369 0
2020-02-17 16:11:52 GMT 42.808182 -85.373863 32,000 257 369 0
2020-02-17 16:11:49 GMT 42.809856 -85.364159 32,000 257 368 0
2020-02-17 16:11:44 GMT 42.811859 -85.352654 32,000 257 368 0
2020-02-17 16:11:41 GMT 42.812759 -85.347740 32,000 257 368 0
2020-02-17 16:11:36 GMT 42.816139 -85.328064 32,025 257 369 0
2020-02-17 16:11:33 GMT 42.816139 -85.328064 32,000 257 369 0
2020-02-17 16:11:29 GMT 42.817657 -85.319504 32,000 257 369 0
2020-02-17 16:11:26 GMT 42.818794 -85.312698 32,000 257 369 0
2020-02-17 16:11:22 GMT 42.820084 -85.305519 32,000 257 369 -64
2020-02-17 16:11:18 GMT 42.821823 -85.295296 32,025 257 369 -64
2020-02-17 16:11:15 GMT 42.822556 -85.291016 32,025 257 369 -64
2020-02-17 16:11:12 GMT 42.824203 -85.281754 32,025 257 369 -64
2020-02-17 16:11:08 GMT 42.826950 -85.265915 32,025 257 370 -64
2020-02-17 16:11:02 GMT 42.827778 -85.261162 32,025 257 369 0
2020-02-17 16:10:59 GMT 42.829082 -85.253708 32,025 257 369 0
2020-02-17 16:10:56 GMT 42.830521 -85.245537 32,025 257 370 0
2020-02-17 16:10:50 GMT 42.833038 -85.231041 32,025 257 370 0
2020-02-17 16:10:47 GMT 42.834110 -85.224678 32,025 257 370 0
2020-02-17 16:10:41 GMT 42.836018 -85.213554 32,025 257 371 0
2020-02-17 16:10:38 GMT 42.837296 -85.206322 32,025 257 371 0
2020-02-17 16:10:35 GMT 42.838577 -85.198784 32,025 257 372 0
2020-02-17 16:10:28 GMT 42.841328 -85.183083 32,025 257 372 0
2020-02-17 16:10:23 GMT 42.844757 -85.163330 32,025 257 371 0
2020-02-17 16:10:20 GMT 42.844757 -85.163330 32,025 257 371 0
2020-02-17 16:10:17 GMT 42.845764 -85.157646 32,025 257 372 0
2020-02-17 16:10:14 GMT 42.846821 -85.151497 32,025 257 372 0
2020-02-17 16:10:11 GMT 42.848167 -85.143517 32,000 257 372 64
2020-02-17 16:10:08 GMT 42.848915 -85.139206 32,025 257 372 64
2020-02-17 16:10:05 GMT 42.850204 -85.131653 32,025 257 372 0
2020-02-17 16:10:02 GMT 42.851662 -85.122986 32,000 257 372 0
2020-02-17 16:09:59 GMT 42.852905 -85.115685 32,025 257 372 0
2020-02-17 16:09:56 GMT 42.853775 -85.110443 32,000 257 372 0
2020-02-17 16:09:53 GMT 42.854965 -85.103561 32,025 257 372 0
2020-02-17 16:09:48 GMT 42.857758 -85.087151 32,000 257 372 0
2020-02-17 16:09:45 GMT 42.857758 -85.087151 32,000 257 372 64
2020-02-17 16:09:42 GMT 42.859451 -85.077103 32,000 257 372 64
2020-02-17 16:09:38 GMT 42.860962 -85.068222 32,000 257 372 64
2020-02-17 16:09:35 GMT 42.861786 -85.063431 32,000 257 372 64
2020-02-17 16:09:32 GMT 42.862976 -85.056343 32,000 257 372 64
2020-02-17 16:09:26 GMT 42.865673 -85.040390 32,000 257 371 0
2020-02-17 16:09:22 GMT 42.866913 -85.033096 32,000 257 371 0
2020-02-17 16:09:19 GMT 42.868561 -85.023514 32,000 257 371 0
2020-02-17 16:09:15 GMT 42.869659 -85.017128 31,975 257 371 0
2020-02-17 16:09:12 GMT 42.871078 -85.008698 31,975 257 371 0
2020-02-17 16:09:05 GMT 42.873634 -84.993896 31,975 257 371 0
2020-02-17 16:08:59 GMT 42.876343 -84.978226 31,975 257 371 0
2020-02-17 16:08:56 GMT 42.878429 -84.965714 31,975 258 370 64
2020-02-17 16:08:53 GMT 42.878429 -84.965714 31,975 258 371 0
2020-02-17 16:08:50 GMT 42.879456 -84.959763 31,975 258 371 0
2020-02-17 16:08:47 GMT 42.880802 -84.951782 31,975 258 371 0
2020-02-17 16:08:44 GMT 42.881779 -84.946091 31,975 258 371 0
2020-02-17 16:08:40 GMT 42.883713 -84.934540 31,975 258 371 64
2020-02-17 16:08:37 GMT 42.884434 -84.930199 31,975 258 370 64
2020-02-17 16:08:34 GMT 42.887100 -84.914482 31,975 258 370 0
2020-02-17 16:08:30 GMT 42.887100 -84.914482 31,975 258 370 -64
2020-02-17 16:08:26 GMT 42.888763 -84.904503 31,975 258 370 0
2020-02-17 16:08:23 GMT 42.889709 -84.899086 31,975 258 370 -64
2020-02-17 16:08:20 GMT 42.891174 -84.890205 31,975 258 370 0
2020-02-17 16:08:15 GMT 42.892914 -84.879990 31,975 258 370 0
2020-02-17 16:08:10 GMT 42.895065 -84.867279 31,975 258 370 -64
2020-02-17 16:08:06 GMT 42.896397 -84.859573 31,975 258 370 -64
2020-02-17 16:08:03 GMT 42.897793 -84.851143 31,975 258 370 -64
2020-02-17 16:07:59 GMT 42.900558 -84.835083 31,975 257 369 -64
2020-02-17 16:07:56 GMT 42.900558 -84.835083 32,000 257 369 -64
2020-02-17 16:07:52 GMT 42.901703 -84.828255 32,000 257 369 0
2020-02-17 16:07:49 GMT 42.903259 -84.819183 31,975 257 369 0
2020-02-17 16:07:45 GMT 42.904499 -84.811966 32,000 258 369 0
2020-02-17 16:07:41 GMT 42.905777 -84.804489 32,000 258 369 0
2020-02-17 16:07:38 GMT 42.907524 -84.794312 32,000 258 369 0
2020-02-17 16:07:35 GMT 42.908268 -84.789803 32,000 258 369 0
2020-02-17 16:07:32 GMT 42.909439 -84.782967 32,000 258 369 0
2020-02-17 16:07:28 GMT 42.910995 -84.773705 32,000 258 369 -64
2020-02-17 16:07:25 GMT 42.912506 -84.764885 32,000 258 369 -64
2020-02-17 16:07:18 GMT 42.915157 -84.748993 32,000 258 369 -64
2020-02-17 16:07:14 GMT 42.916321 -84.742195 32,000 258 369 0
2020-02-17 16:07:11 GMT 42.917770 -84.733589 32,000 258 369 0
2020-02-17 16:07:05 GMT 42.919628 -84.722702 32,000 257 369 0
2020-02-17 16:07:00 GMT 42.921631 -84.710930 32,000 257 369 0
2020-02-17 16:06:56 GMT 42.923035 -84.702736 32,000 257 369 0
2020-02-17 16:06:53 GMT 42.926235 -84.683922 32,000 257 370 -64
2020-02-17 16:06:49 GMT 42.926235 -84.683922 32,000 257 370 -64
2020-02-17 16:06:46 GMT 42.927246 -84.678017 32,025 258 370 0
2020-02-17 16:06:40 GMT 42.931091 -84.655602 32,025 258 370 0
2020-02-17 16:06:36 GMT 42.932968 -84.644485 32,025 258 370 0
2020-02-17 16:06:29 GMT 42.933746 -84.639694 32,025 258 370 0
2020-02-17 16:06:26 GMT 42.934937 -84.632668 32,025 258 370 0
2020-02-17 16:06:19 GMT 42.937683 -84.616318 32,025 258 370 0
2020-02-17 16:06:16 GMT 42.940155 -84.601303 32,025 258 370 0
2020-02-17 16:06:06 GMT 42.942345 -84.588058 32,025 258 370 0
2020-02-17 16:06:03 GMT 42.943974 -84.578316 32,025 258 370 0
2020-02-17 16:06:00 GMT 42.944904 -84.572624 32,000 258 370 0
2020-02-17 16:05:57 GMT 42.945789 -84.567131 32,000 258 370 0
2020-02-17 16:05:54 GMT 42.948025 -84.553459 32,000 258 371 0
2020-02-17 16:05:51 GMT 42.948025 -84.553459 32,025 258 371 0
2020-02-17 16:05:46 GMT 42.949814 -84.542480 32,000 258 371 0
2020-02-17 16:05:43 GMT 42.951839 -84.530380 32,000 258 372 0
2020-02-17 16:05:36 GMT 42.954712 -84.513290 32,000 258 372 64
2020-02-17 16:05:33 GMT 42.954712 -84.513290 32,000 258 371 64
2020-02-17 16:05:30 GMT 42.956078 -84.505074 32,000 258 371 64
2020-02-17 16:05:27 GMT 42.957287 -84.498009 32,000 258 372 0
2020-02-17 16:05:24 GMT 42.958740 -84.489334 32,000 258 372 0
2020-02-17 16:05:19 GMT 42.959942 -84.481987 32,000 258 372 0
2020-02-17 16:05:15 GMT 42.961578 -84.471962 32,000 258 371 0
2020-02-17 16:05:12 GMT 42.962585 -84.465767 32,000 258 371 0
2020-02-17 16:05:09 GMT 42.964096 -84.456436 32,000 258 371 0
2020-02-17 16:05:05 GMT 42.965424 -84.448395 32,000 258 371 0
2020-02-17 16:04:58 GMT 42.967716 -84.434250 32,000 258 372 0
2020-02-17 16:04:55 GMT 42.969345 -84.424438 32,000 258 372 0
2020-02-17 16:04:51 GMT 42.970650 -84.416458 32,000 258 372 0
2020-02-17 16:04:48 GMT 42.973301 -84.400436 32,000 258 372 0
2020-02-17 16:04:44 GMT 42.973301 -84.400436 32,000 258 372 0
2020-02-17 16:04:39 GMT 42.975449 -84.387650 32,000 258 371 0
2020-02-17 16:04:34 GMT 42.978516 -84.368919 32,000 258 371 0
2020-02-17 16:04:31 GMT 42.978516 -84.368919 32,000 258 371 0
2020-02-17 16:04:28 GMT 42.979305 -84.364143 32,000 258 372 0
2020-02-17 16:04:24 GMT 42.982380 -84.345444 32,000 258 371 0
2020-02-17 16:04:20 GMT 42.983597 -84.338142 32,000 258 371 0
2020-02-17 16:04:13 GMT 42.984985 -84.329941 32,000 258 371 0
2020-02-17 16:04:09 GMT 42.986618 -84.319878 32,000 258 370 0
2020-02-17 16:04:04 GMT 42.988571 -84.308037 32,000 258 370 0
2020-02-17 16:04:01 GMT 42.989777 -84.300713 32,000 258 370 0
2020-02-17 16:03:56 GMT 42.992981 -84.281296 32,000 258 371 0
2020-02-17 16:03:52 GMT 42.992981 -84.281296 32,000 258 371 0
2020-02-17 16:03:47 GMT 42.995087 -84.268539 32,000 258 371 0
2020-02-17 16:03:42 GMT 42.996597 -84.259392 32,000 258 372 0
2020-02-17 16:03:39 GMT 42.997650 -84.252998 32,000 258 371 0
2020-02-17 16:03:36 GMT 42.999023 -84.244759 32,000 258 371 0
2020-02-17 16:03:31 GMT 43.002071 -84.225838 32,000 258 371 0
2020-02-17 16:03:28 GMT 43.002071 -84.225838 32,000 258 371 0
2020-02-17 16:03:25 GMT 43.002777 -84.221451 32,000 258 371 64
2020-02-17 16:03:22 GMT 43.004333 -84.211868 32,000 258 371 64
2020-02-17 16:03:18 GMT 43.005478 -84.205032 32,000 258 371 0
2020-02-17 16:03:15 GMT 43.006775 -84.196732 32,000 258 371 -64
2020-02-17 16:03:11 GMT 43.008041 -84.188995 32,000 258 371 -64
2020-02-17 16:03:07 GMT 43.009705 -84.178688 32,000 258 371 0
2020-02-17 16:03:04 GMT 43.011009 -84.170708 32,000 258 371 0
2020-02-17 16:03:01 GMT 43.011753 -84.166130 32,000 258 371 -64
2020-02-17 16:02:57 GMT 43.013432 -84.155602 32,000 258 371 0
2020-02-17 16:02:53 GMT 43.015091 -84.145500 32,025 258 371 0
2020-02-17 16:02:46 GMT 43.017433 -84.130882 32,025 258 371 0
2020-02-17 16:02:43 GMT 43.018318 -84.125587 32,025 258 371 0
2020-02-17 16:02:38 GMT 43.020859 -84.109795 32,025 258 372 -64
2020-02-17 16:02:34 GMT 43.021912 -84.103149 32,025 258 372 -64
2020-02-17 16:02:30 GMT 43.023605 -84.092873 32,025 258 372 -64
2020-02-17 16:02:27 GMT 43.024323 -84.088509 32,025 258 372 -64
2020-02-17 16:02:24 GMT 43.025997 -84.077980 32,025 258 372 0
2020-02-17 16:02:20 GMT 43.027302 -84.069931 32,025 258 372 0
2020-02-17 16:02:13 GMT 43.029694 -84.055504 32,025 258 372 0
2020-02-17 16:02:09 GMT 43.031075 -84.046783 32,025 258 372 0
2020-02-17 16:02:06 GMT 43.032375 -84.038742 32,025 258 372 0
2020-02-17 16:02:02 GMT 43.033493 -84.031868 32,025 258 372 0
2020-02-17 16:01:57 GMT 43.035507 -84.019287 32,025 258 372 0
2020-02-17 16:01:53 GMT 43.037357 -84.007805 32,025 258 372 0
2020-02-17 16:01:48 GMT 43.038708 -83.999306 32,025 258 372 0
2020-02-17 16:01:44 GMT 43.040478 -83.988258 32,025 258 372 0
2020-02-17 16:01:41 GMT 43.042694 -83.974510 32,025 258 373 0
2020-02-17 16:01:37 GMT 43.042694 -83.974510 32,025 258 373 0
2020-02-17 16:01:34 GMT 43.044479 -83.963211 32,025 258 373 64
2020-02-17 16:01:28 GMT 43.046448 -83.951263 32,025 258 373 0
2020-02-17 16:01:21 GMT 43.048828 -83.936569 32,025 258 373 0
2020-02-17 16:01:17 GMT 43.050339 -83.927116 32,025 258 373 0
2020-02-17 16:01:14 GMT 43.052902 -83.911278 32,025 258 373 0
2020-02-17 16:01:10 GMT 43.052902 -83.911278 32,000 258 373 64
2020-02-17 16:01:06 GMT 43.054184 -83.903229 32,025 258 373 64
2020-02-17 16:01:01 GMT 43.056519 -83.888474 32,000 258 372 64
2020-02-17 16:00:57 GMT 43.057980 -83.879311 32,000 258 372 64
2020-02-17 16:00:53 GMT 43.059143 -83.872177 32,000 258 372 128
2020-02-17 16:00:49 GMT 43.060547 -83.863434 31,975 258 372 128
2020-02-17 16:00:45 GMT 43.063843 -83.842804 31,975 258 372 64
2020-02-17 16:00:41 GMT 43.063843 -83.842804 31,975 258 372 0
2020-02-17 16:00:38 GMT 43.064621 -83.837944 31,975 258 372 0
2020-02-17 16:00:35 GMT 43.065567 -83.831963 31,975 258 373 0
2020-02-17 16:00:30 GMT 43.067963 -83.817062 31,975 258 372 0
2020-02-17 16:00:26 GMT 43.070663 -83.800072 31,975 258 372 0
2020-02-17 16:00:18 GMT 43.071854 -83.792725 31,975 258 372 0
2020-02-17 16:00:14 GMT 43.073456 -83.782631 31,975 258 371 0
2020-02-17 16:00:09 GMT 43.075764 -83.768204 31,975 258 371 0
2020-02-17 16:00:05 GMT 43.077072 -83.760147 31,975 258 371 0
2020-02-17 15:59:58 GMT 43.079395 -83.745705 31,975 258 371 0
2020-02-17 15:59:54 GMT 43.082512 -83.726021 31,975 258 371 0
2020-02-17 15:59:50 GMT 43.082512 -83.726021 31,975 258 371 0
2020-02-17 15:59:40 GMT 43.087307 -83.695351 31,975 259 371 -64
2020-02-17 15:59:37 GMT 43.087307 -83.695351 31,975 259 371 -64
2020-02-17 15:59:32 GMT 43.088608 -83.687141 31,975 258 370 -64
2020-02-17 15:59:29 GMT 43.089870 -83.678940 31,975 258 370 -64
2020-02-17 15:59:25 GMT 43.091450 -83.668602 32,000 258 370 0
2020-02-17 15:59:22 GMT 43.092407 -83.662674 32,000 258 370 0
2020-02-17 15:59:19 GMT 43.093826 -83.653801 32,000 258 370 0
2020-02-17 15:59:13 GMT 43.095688 -83.641922 32,000 258 369 0
2020-02-17 15:59:09 GMT 43.096802 -83.635086 32,000 258 369 0
2020-02-17 15:59:06 GMT 43.098343 -83.625511 32,000 258 369 0
2020-02-17 15:59:02 GMT 43.099552 -83.617989 31,975 258 369 0
2020-02-17 15:58:59 GMT 43.100529 -83.611839 32,000 258 370 0
2020-02-17 15:58:56 GMT 43.102203 -83.601357 32,000 258 370 0
2020-02-17 15:58:52 GMT 43.103134 -83.595428 32,000 258 370 0
2020-02-17 15:58:49 GMT 43.105408 -83.581047 32,000 258 370 -64
2020-02-17 15:58:46 GMT 43.105408 -83.581047 32,000 258 370 -64
2020-02-17 15:58:42 GMT 43.107044 -83.570511 32,000 258 370 -64
2020-02-17 15:58:37 GMT 43.108955 -83.558418 32,000 258 370 -64
2020-02-17 15:58:32 GMT 43.110718 -83.547195 32,000 258 370 -64
2020-02-17 15:58:29 GMT 43.111748 -83.540565 32,000 258 370 -64
2020-02-17 15:58:25 GMT 43.113007 -83.532585 32,000 258 371 0
2020-02-17 15:58:21 GMT 43.114727 -83.521599 32,000 259 371 0
2020-02-17 15:58:18 GMT 43.115379 -83.517479 32,000 259 371 0
2020-02-17 15:58:15 GMT 43.116776 -83.508522 32,000 259 371 0
2020-02-17 15:58:10 GMT 43.118317 -83.498711 32,000 259 371 0
2020-02-17 15:58:07 GMT 43.119198 -83.492958 32,000 258 371 0
2020-02-17 15:58:04 GMT 43.120361 -83.485435 32,000 258 371 0
2020-02-17 15:57:58 GMT 43.122967 -83.468956 32,000 258 371 0
2020-02-17 15:57:53 GMT 43.124226 -83.460915 32,000 259 371 0
2020-02-17 15:57:50 GMT 43.126831 -83.444160 32,000 259 372 0
2020-02-17 15:57:44 GMT 43.127792 -83.437965 32,000 259 372 0
2020-02-17 15:57:39 GMT 43.129120 -83.429474 32,000 259 372 0
2020-02-17 15:57:36 GMT 43.130402 -83.421234 32,000 259 372 0
2020-02-17 15:57:33 GMT 43.131439 -83.414284 32,000 259 372 0
2020-02-17 15:57:29 GMT 43.133118 -83.403755 32,000 259 373 0
2020-02-17 15:57:24 GMT 43.134747 -83.392899 32,000 259 373 0
2020-02-17 15:57:18 GMT 43.136791 -83.379822 32,000 259 373 0
2020-02-17 15:57:12 GMT 43.139072 -83.365044 32,000 259 373 0
2020-02-17 15:57:07 GMT 43.140518 -83.355827 32,000 259 373 0
2020-02-17 15:57:02 GMT 43.142567 -83.342285 32,000 259 373 0
2020-02-17 15:56:59 GMT 43.143814 -83.334175 32,000 259 373 0
2020-02-17 15:56:52 GMT 43.146523 -83.316910 32,000 258 373 0
2020-02-17 15:56:47 GMT 43.149673 -83.296677 32,000 258 373 64
2020-02-17 15:56:42 GMT 43.149673 -83.296677 32,000 258 373 64
2020-02-17 15:56:35 GMT 43.152668 -83.277542 32,000 258 373 64
2020-02-17 15:56:30 GMT 43.153786 -83.270416 31,975 258 373 0
2020-02-17 15:56:24 GMT 43.156345 -83.254265 31,975 258 373 0
2020-02-17 15:56:21 GMT 43.158718 -83.239029 32,000 259 373 0
2020-02-17 15:56:17 GMT 43.158718 -83.239029 31,975 259 373 0
2020-02-17 15:56:14 GMT 43.159927 -83.231148 31,975 259 373 0
2020-02-17 15:56:11 GMT 43.162395 -83.214699 32,000 259 373 -64
2020-02-17 15:56:07 GMT 43.162395 -83.214699 32,000 259 373 0
2020-02-17 15:56:04 GMT 43.163544 -83.207130 32,000 259 373 0
2020-02-17 15:55:59 GMT 43.164864 -83.198090 32,000 259 373 0
2020-02-17 15:55:55 GMT 43.166428 -83.187904 32,000 259 373 0
2020-02-17 15:55:50 GMT 43.168442 -83.174744 32,000 258 374 0
2020-02-17 15:55:44 GMT 43.171692 -83.153664 32,000 259 374 0
2020-02-17 15:55:40 GMT 43.171692 -83.153664 32,000 259 374 0
2020-02-17 15:55:34 GMT 43.173801 -83.140083 32,000 259 374 0
2020-02-17 15:55:29 GMT 43.175491 -83.128944 31,975 259 373 0
2020-02-17 15:55:24 GMT 43.177155 -83.118111 31,975 259 373 0
2020-02-17 15:55:21 GMT 43.178375 -83.109978 31,975 259 373 0
2020-02-17 15:55:14 GMT 43.181351 -83.090302 32,000 259 374 0
2020-02-17 15:55:09 GMT 43.182816 -83.080849 32,000 259 374 0
2020-02-17 15:55:03 GMT 43.184738 -83.068077 31,975 259 374 0
2020-02-17 15:54:58 GMT 43.186649 -83.055595 32,000 259 374 -64
2020-02-17 15:54:53 GMT 43.188034 -83.046295 32,000 259 374 -64
2020-02-17 15:54:50 GMT 43.189453 -83.037033 32,000 259 374 -64
2020-02-17 15:54:47 GMT 43.190918 -83.027512 32,000 259 374 0
2020-02-17 15:54:41 GMT 43.193726 -83.009163 32,000 259 374 0
2020-02-17 15:54:38 GMT 43.193726 -83.009163 32,000 259 374 0
2020-02-17 15:54:34 GMT 43.196732 -82.989449 32,025 259 374 0
2020-02-17 15:54:26 GMT 43.197868 -82.982025 32,000 259 375 0
2020-02-17 15:54:20 GMT 43.201035 -82.960899 32,000 259 375 0
2020-02-17 15:54:17 GMT 43.201035 -82.960899 32,000 259 375 0
2020-02-17 15:54:12 GMT 43.202572 -82.950897 32,000 259 375 0
2020-02-17 15:54:09 GMT 43.203594 -82.944160 32,000 259 375 0
2020-02-17 15:54:06 GMT 43.205227 -82.933701 32,000 259 375 0
2020-02-17 15:54:03 GMT 43.206158 -82.927422 32,000 259 375 0
2020-02-17 15:53:56 GMT 43.208439 -82.912514 32,025 259 376 0
2020-02-17 15:53:51 GMT 43.210533 -82.898972 32,000 259 376 0
2020-02-17 15:53:46 GMT 43.212158 -82.888268 32,025 259 377 0
2020-02-17 15:53:42 GMT 43.213486 -82.879196 32,000 259 376 0
2020-02-17 15:53:36 GMT 43.215748 -82.863724 32,000 259 377 -64
2020-02-17 15:53:30 GMT 43.217701 -82.850647 32,025 259 377 -64
2020-02-17 15:53:24 GMT 43.219391 -82.838959 32,025 259 377 -64
2020-02-17 15:53:21 GMT 43.220680 -82.830574 32,025 259 377 0
2020-02-17 15:53:17 GMT 43.222458 -82.818649 32,025 259 377 0
2020-02-17 15:53:12 GMT 43.223755 -82.809776 32,025 259 377 0
2020-02-17 15:53:08 GMT 43.225113 -82.800888 32,025 259 377 0
2020-02-17 15:53:02 GMT 43.227478 -82.785255 32,025 259 377 0
2020-02-17 15:52:59 GMT 43.228687 -82.777077 32,025 259 377 0
2020-02-17 15:52:49 GMT 43.231853 -82.756218 32,025 259 377 0
2020-02-17 15:52:43 GMT 43.236137 -82.727440 32,025 259 377 0
2020-02-17 15:52:38 GMT 43.236137 -82.727440 32,025 259 377 0
2020-02-17 15:52:32 GMT 43.237701 -82.716896 32,025 259 378 64
2020-02-17 15:52:27 GMT 43.241089 -82.694153 32,025 259 378 0
2020-02-17 15:52:23 GMT 43.241089 -82.694153 32,025 259 378 0
2020-02-17 15:52:18 GMT 43.243725 -82.676628 32,025 259 378 0
2020-02-17 15:52:12 GMT 43.245213 -82.666496 32,025 259 378 0
2020-02-17 15:52:07 GMT 43.246857 -82.655510 32,025 259 378 0
2020-02-17 15:52:02 GMT 43.250473 -82.630859 32,025 259 378 64
2020-02-17 15:51:56 GMT 43.252899 -82.614441 32,000 259 378 64
2020-02-17 15:51:49 GMT 43.254135 -82.606262 32,025 259 378 64
2020-02-17 15:51:46 GMT 43.254135 -82.606262 32,000 259 378 64
2020-02-17 15:51:42 GMT 43.255547 -82.596848 32,000 259 378 64
2020-02-17 15:51:37 GMT 43.257175 -82.585861 32,000 259 378 0
2020-02-17 15:51:34 GMT 43.258247 -82.579063 32,000 259 377 0
2020-02-17 15:51:27 GMT 43.260727 -82.562386 32,000 259 377 0
2020-02-17 15:51:24 GMT 43.261692 -82.556107 32,000 259 377 0
2020-02-17 15:51:20 GMT 43.263290 -82.545326 32,000 259 377 0
2020-02-17 15:51:15 GMT 43.265137 -82.532890 32,000 259 377 0
2020-02-17 15:51:07 GMT 43.267868 -82.514412 32,000 259 377 0
2020-02-17 15:51:04 GMT 43.268677 -82.509285 32,000 259 377 -64
2020-02-17 15:50:56 GMT 43.271378 -82.491043 32,000 259 377 -64
2020-02-17 15:50:53 GMT 43.272400 -82.484009 32,000 259 376 -64
2020-02-17 15:50:47 GMT 43.275879 -82.460182 32,000 259 376 0
2020-02-17 15:50:43 GMT 43.275879 -82.460182 32,000 259 376 0
2020-02-17 15:50:36 GMT 43.279613 -82.434280 32,000 259 376 0
2020-02-17 15:50:32 GMT 43.282688 -82.414200 32,000 257 376 0
2020-02-17 15:50:24 GMT 43.282688 -82.414200 32,000 256 376 0
2020-02-17 15:50:21 GMT 43.283661 -82.408707 32,000 253 377 0
2020-02-17 15:50:16 GMT 43.287689 -82.387947 32,000 254 376 0
2020-02-17 15:50:12 GMT 43.287689 -82.387947 32,025 253 376 0
2020-02-17 15:50:07 GMT 43.290482 -82.375427 32,000 253 377 0
2020-02-17 15:50:04 GMT 43.291580 -82.370636 32,000 253 377 0
2020-02-17 15:49:59 GMT 43.294048 -82.359665 32,000 253 377 0
2020-02-17 15:49:56 GMT 43.296158 -82.350578 32,000 253 377 0
2020-02-17 15:49:52 GMT 43.298237 -82.341484 32,000 253 377 0
2020-02-17 15:49:44 GMT 43.302338 -82.323494 32,025 253 377 0
2020-02-17 15:49:41 GMT 43.306229 -82.306633 32,000 253 376 0
2020-02-17 15:49:37 GMT 43.306229 -82.306633 32,025 253 376 0
2020-02-17 15:49:34 GMT 43.307053 -82.302994 32,025 253 376 0
2020-02-17 15:49:31 GMT 43.308990 -82.294594 32,025 253 376 0
2020-02-17 15:49:26 GMT 43.311550 -82.283478 32,025 253 376 0
2020-02-17 15:49:23 GMT 43.313141 -82.276611 32,025 253 376 0
2020-02-17 15:49:18 GMT 43.315323 -82.267067 32,025 253 375 0
2020-02-17 15:49:15 GMT 43.317417 -82.257774 32,025 254 376 0
2020-02-17 15:49:12 GMT 43.318863 -82.251381 32,050 254 376 0
2020-02-17 15:49:08 GMT 43.321335 -82.240204 32,025 254 376 0
2020-02-17 15:49:05 GMT 43.322304 -82.235870 32,025 254 376 0
2020-02-17 15:49:02 GMT 43.323807 -82.229088 32,025 254 376 0
2020-02-17 15:48:57 GMT 43.326542 -82.216774 32,025 254 376 0
2020-02-17 15:48:54 GMT 43.327888 -82.210625 32,025 253 375 0
2020-02-17 15:48:51 GMT 43.329025 -82.205582 32,025 253 375 0
2020-02-17 15:48:48 GMT 43.331223 -82.195808 32,025 253 376 -64
2020-02-17 15:48:42 GMT 43.334595 -82.181068 32,050 253 376 0
2020-02-17 15:48:37 GMT 43.336735 -82.171715 32,050 253 376 0
2020-02-17 15:48:34 GMT 43.338593 -82.163551 32,050 253 376 0
2020-02-17 15:48:28 GMT 43.341202 -82.151932 32,025 253 375 0
2020-02-17 15:48:25 GMT 43.342712 -82.145348 32,025 253 375 0
2020-02-17 15:48:21 GMT 43.344910 -82.135574 32,025 253 375 0
2020-02-17 15:48:15 GMT 43.348709 -82.118713 32,025 253 376 0
2020-02-17 15:48:11 GMT 43.350281 -82.111885 32,025 253 376 0
2020-02-17 15:48:06 GMT 43.352600 -82.101601 32,025 253 376 0
2020-02-17 15:48:00 GMT 43.355713 -82.087738 32,025 253 377 0
2020-02-17 15:47:55 GMT 43.358139 -82.077003 32,025 253 377 0
2020-02-17 15:47:52 GMT 43.360012 -82.068787 32,025 253 376 0
2020-02-17 15:47:49 GMT 43.361252 -82.063339 32,025 253 376 0
2020-02-17 15:47:46 GMT 43.364761 -82.047600 32,025 253 376 0
2020-02-17 15:47:43 GMT 43.365967 -82.042381 32,025 254 376 64
2020-02-17 15:47:37 GMT 43.367599 -82.035042 32,025 253 375 64
2020-02-17 15:47:34 GMT 43.368713 -82.030060 32,025 254 376 64
2020-02-17 15:47:31 GMT 43.371002 -82.019775 32,025 254 376 64
2020-02-17 15:47:25 GMT 43.373604 -82.008163 32,000 253 375 64
2020-02-17 15:47:21 GMT 43.376038 -81.997223 32,000 253 375 64
2020-02-17 15:47:17 GMT 43.377888 -81.989067 32,000 253 375 64
2020-02-17 15:47:14 GMT 43.379608 -81.981323 32,000 253 375 0
2020-02-17 15:47:10 GMT 43.381714 -81.971992 32,000 253 375 0
2020-02-17 15:47:03 GMT 43.384552 -81.959480 32,000 253 374 0
2020-02-17 15:47:00 GMT 43.386017 -81.952896 32,000 253 374 0
2020-02-17 15:46:57 GMT 43.387527 -81.946320 32,000 253 374 0
2020-02-17 15:46:54 GMT 43.389851 -81.936104 32,000 253 374 0
2020-02-17 15:46:51 GMT 43.391418 -81.929070 32,000 253 374 0
2020-02-17 15:46:48 GMT 43.392746 -81.923195 32,000 253 374 0
2020-02-17 15:46:43 GMT 43.395538 -81.910744 32,000 253 373 0
2020-02-17 15:46:38 GMT 43.397392 -81.902550 32,000 253 373 0
2020-02-17 15:46:35 GMT 43.399673 -81.892418 32,000 253 372 0
2020-02-17 15:46:30 GMT 43.402084 -81.881744 32,000 253 372 0
2020-02-17 15:46:27 GMT 43.403412 -81.876122 32,000 253 372 0
2020-02-17 15:46:24 GMT 43.405106 -81.868454 32,000 253 372 64
2020-02-17 15:46:19 GMT 43.407402 -81.858284 32,000 253 372 64
2020-02-17 15:46:16 GMT 43.409134 -81.850571 31,975 253 372 64
2020-02-17 15:46:13 GMT 43.410782 -81.843102 31,975 253 372 64
2020-02-17 15:46:08 GMT 43.412979 -81.833389 31,975 253 372 64
2020-02-17 15:46:04 GMT 43.416431 -81.817802 31,975 253 372 0
2020-02-17 15:45:58 GMT 43.418434 -81.809036 31,975 253 372 0
2020-02-17 15:45:53 GMT 43.420483 -81.799751 31,975 253 372 0
2020-02-17 15:45:50 GMT 43.421787 -81.793869 31,975 253 372 0
2020-02-17 15:45:46 GMT 43.424484 -81.781700 31,975 254 372 0
2020-02-17 15:45:42 GMT 43.426483 -81.772644 31,975 254 372 64
2020-02-17 15:45:36 GMT 43.428635 -81.762939 31,975 254 372 64
2020-02-17 15:45:33 GMT 43.431931 -81.748055 31,975 254 372 0
2020-02-17 15:45:30 GMT 43.431931 -81.748055 31,975 253 372 0
2020-02-17 15:45:25 GMT 43.434906 -81.734703 31,975 253 372 -64
2020-02-17 15:45:20 GMT 43.436684 -81.726768 31,975 253 372 0
2020-02-17 15:45:15 GMT 43.441269 -81.706215 31,975 253 372 -64
2020-02-17 15:45:12 GMT 43.442963 -81.698746 31,975 253 372 -64
2020-02-17 15:45:04 GMT 43.445713 -81.686356 31,975 254 372 -64
2020-02-17 15:44:59 GMT 43.447483 -81.678444 31,975 254 372 -64
2020-02-17 15:44:54 GMT 43.450275 -81.665756 32,000 254 372 0
2020-02-17 15:44:51 GMT 43.452232 -81.656929 32,000 254 372 0
2020-02-17 15:44:43 GMT 43.455631 -81.641563 32,000 254 372 -64
2020-02-17 15:44:40 GMT 43.457245 -81.634293 32,000 254 372 -64
2020-02-17 15:44:33 GMT 43.460632 -81.618904 32,000 254 372 0
2020-02-17 15:44:30 GMT 43.463379 -81.606445 32,025 254 372 0
2020-02-17 15:44:24 GMT 43.465668 -81.596031 32,025 254 372 0
2020-02-17 15:44:19 GMT 43.468048 -81.585434 32,025 254 373 0
2020-02-17 15:44:14 GMT 43.470062 -81.576103 32,000 254 373 0
2020-02-17 15:44:11 GMT 43.471363 -81.570213 32,000 254 375 0
2020-02-17 15:44:07 GMT 43.473320 -81.561325 32,000 253 375 0
2020-02-17 15:44:04 GMT 43.477600 -81.542160 32,000 254 376 0
2020-02-17 15:44:00 GMT 43.477600 -81.542160 32,000 254 377 0
2020-02-17 15:43:57 GMT 43.479183 -81.535034 32,000 254 377 64
2020-02-17 15:43:53 GMT 43.480682 -81.528198 32,000 254 379 64
2020-02-17 15:43:50 GMT 43.482101 -81.521751 32,000 254 379 64
2020-02-17 15:43:46 GMT 43.484119 -81.512535 32,000 254 379 64
2020-02-17 15:43:43 GMT 43.485981 -81.503975 32,000 254 380 0
2020-02-17 15:43:39 GMT 43.487823 -81.495689 32,000 254 374 320
2020-02-17 15:43:36 GMT 43.489380 -81.488472 32,000 254 379 -64
2020-02-17 15:43:33 GMT 43.492310 -81.475121 32,000 254 379 0
2020-02-17 15:43:26 GMT 43.494415 -81.465668 32,000 254 379 0
2020-02-17 15:43:21 GMT 43.497208 -81.452766 32,000 254 378 0
2020-02-17 15:43:16 GMT 43.499855 -81.440804 32,000 254 378 -64
2020-02-17 15:43:10 GMT 43.502335 -81.429260 32,000 254 378 -64
2020-02-17 15:43:05 GMT 43.504929 -81.417519 32,000 254 377 0
2020-02-17 15:43:02 GMT 43.508377 -81.401665 32,000 254 376 0
2020-02-17 15:42:58 GMT 43.510887 -81.390182 32,025 254 375 0
2020-02-17 15:42:54 GMT 43.510887 -81.390182 32,000 254 375 0
2020-02-17 15:42:50 GMT 43.512749 -81.381485 32,000 254 375 0
2020-02-17 15:42:46 GMT 43.516479 -81.364365 32,000 254 375 0
2020-02-17 15:42:42 GMT 43.517944 -81.357719 32,000 254 374 0
2020-02-17 15:42:39 GMT 43.517944 -81.357719 32,000 254 374 64
2020-02-17 15:42:34 GMT 43.520897 -81.344078 32,000 254 374 128
2020-02-17 15:42:29 GMT 43.523270 -81.333359 31,975 254 374 192
2020-02-17 15:42:26 GMT 43.524807 -81.326294 31,975 254 374 320
2020-02-17 15:42:23 GMT 43.526062 -81.320541 31,950 254 374 448
2020-02-17 15:42:20 GMT 43.527466 -81.314156 31,925 254 375 640
2020-02-17 15:42:16 GMT 43.529297 -81.305725 31,900 254 375 768
2020-02-17 15:42:13 GMT 43.531277 -81.296539 31,800 254 377 1344
2020-02-17 15:42:09 GMT 43.532776 -81.289627 30,800 254 381 2304
2020-02-17 15:42:06 GMT 43.534515 -81.281586 31,650 254 379 1792
2020-02-17 15:42:02 GMT 43.536446 -81.272804 31,525 254 381 2112
2020-02-17 15:41:58 GMT 43.538818 -81.261879 31,425 254 381 2304
2020-02-17 15:41:53 GMT 43.540604 -81.253479 31,000 254 385 2368
2020-02-17 15:41:48 GMT 43.543381 -81.240822 30,850 254 386 2048
2020-02-17 15:41:45 GMT 43.545010 -81.233299 30,875 254 386 1920
2020-02-17 15:41:39 GMT 43.549850 -81.210938 30,625 254 386 1280
2020-02-17 15:41:35 GMT 43.550629 -81.207420 30,650 254 386 1408
2020-02-17 15:41:31 GMT 43.552689 -81.197777 30,500 254 384 1344
2020-02-17 15:41:27 GMT 43.554382 -81.189796 30,425 254 383 1344
2020-02-17 15:41:23 GMT 43.556396 -81.180664 30,325 254 383 1344
2020-02-17 15:41:19 GMT 43.560280 -81.162674 30,225 254 382 1344
2020-02-17 15:41:15 GMT 43.560280 -81.162674 30,175 254 382 1280
2020-02-17 15:41:11 GMT 43.562000 -81.154701 30,000 254 381 1088
2020-02-17 15:41:07 GMT 43.564144 -81.144760 30,075 254 380 1088
2020-02-17 15:41:04 GMT 43.565910 -81.136650 29,925 254 378 1408
2020-02-17 15:40:59 GMT 43.568520 -81.124352 29,800 254 378 1664
2020-02-17 15:40:56 GMT 43.570038 -81.117424 29,775 254 378 1856
2020-02-17 15:40:52 GMT 43.571960 -81.108421 29,625 254 378 1984
2020-02-17 15:40:47 GMT 43.574154 -81.098259 29,475 254 379 2176
2020-02-17 15:40:44 GMT 43.575943 -81.089958 29,400 254 379 2240
2020-02-17 15:40:41 GMT 43.577728 -81.081848 29,225 254 381 2112
2020-02-17 15:40:38 GMT 43.578964 -81.076035 29,125 254 381 2112
2020-02-17 15:40:34 GMT 43.581024 -81.066521 29,000 254 382 2048
2020-02-17 15:40:31 GMT 43.582157 -81.061119 28,900 254 382 2112
2020-02-17 15:40:24 GMT 43.585831 -81.044098 28,700 254 383 1984
2020-02-17 15:40:21 GMT 43.587463 -81.036598 28,550 254 384 1984
2020-02-17 15:40:13 GMT 43.591644 -81.017143 28,250 254 385 1664
2020-02-17 15:40:09 GMT 43.593201 -81.009865 28,200 254 385 1600
2020-02-17 15:40:06 GMT 43.595055 -81.001411 28,100 254 385 1536
2020-02-17 15:40:02 GMT 43.597336 -80.990822 27,975 254 385 1664
2020-02-17 15:39:56 GMT 43.600250 -80.977226 27,825 254 385 1472
2020-02-17 15:39:50 GMT 43.603294 -80.963356 27,700 254 384 1216
2020-02-17 15:39:44 GMT 43.606644 -80.947853 27,550 254 382 1280
2020-02-17 15:39:41 GMT 43.607574 -80.943474 27,525 254 382 1344
2020-02-17 15:39:38 GMT 43.610916 -80.927788 27,150 254 382 1344
2020-02-17 15:39:34 GMT 43.610916 -80.927788 27,375 254 382 1216
2020-02-17 15:39:31 GMT 43.612743 -80.919411 27,300 254 381 1024
2020-02-17 15:39:23 GMT 43.616913 -80.899612 27,200 254 379 768
2020-02-17 15:39:19 GMT 43.618656 -80.891289 27,150 254 375 640
2020-02-17 15:39:14 GMT 43.620941 -80.880516 27,100 254 373 768
2020-02-17 15:39:11 GMT 43.622566 -80.872910 27,025 254 373 832
2020-02-17 15:39:03 GMT 43.628220 -80.846344 26,750 254 370 1472
2020-02-17 15:38:57 GMT 43.628860 -80.843147 26,800 254 369 1472
2020-02-17 15:38:54 GMT 43.630898 -80.833672 26,700 254 370 1472
2020-02-17 15:38:51 GMT 43.633644 -80.820793 26,575 254 369 1472
2020-02-17 15:38:48 GMT 43.633644 -80.820793 26,550 254 369 1408
2020-02-17 15:38:42 GMT 43.636688 -80.806618 26,375 254 368 1472
2020-02-17 15:38:39 GMT 43.638813 -80.796730 26,300 254 368 1536
2020-02-17 15:38:33 GMT 43.640720 -80.787964 26,200 254 368 1536
2020-02-17 15:38:30 GMT 43.641953 -80.782089 26,150 254 367 1600
2020-02-17 15:38:27 GMT 43.643562 -80.774490 26,075 254 367 1600
2020-02-17 15:38:23 GMT 43.645569 -80.765030 25,925 254 366 1536
2020-02-17 15:38:20 GMT 43.647190 -80.757423 25,850 254 366 1472
2020-02-17 15:38:17 GMT 43.648727 -80.750275 25,750 254 365 1472
2020-02-17 15:38:12 GMT 43.651985 -80.734795 25,600 254 364 1344
2020-02-17 15:38:06 GMT 43.653618 -80.727013 25,550 254 364 1344
2020-02-17 15:38:02 GMT 43.655479 -80.718315 25,425 254 363 1344
2020-02-17 15:37:59 GMT 43.657574 -80.708313 25,325 254 362 1280
2020-02-17 15:37:55 GMT 43.658409 -80.704323 25,200 254 362 1280
2020-02-17 15:37:51 GMT 43.660492 -80.694580 25,225 254 361 1216
2020-02-17 15:37:46 GMT 43.663254 -80.681564 25,075 254 360 1408
2020-02-17 15:37:40 GMT 43.665665 -80.670113 24,950 254 359 1600
2020-02-17 15:37:37 GMT 43.668884 -80.654953 24,700 254 359 1728
2020-02-17 15:37:29 GMT 43.670654 -80.646385 24,575 254 359 1536
2020-02-17 15:37:26 GMT 43.672283 -80.638664 24,575 254 359 1536
2020-02-17 15:37:23 GMT 43.673725 -80.631866 24,450 254 357 1536
2020-02-17 15:37:19 GMT 43.677109 -80.615891 24,175 254 357 1536
2020-02-17 15:37:16 GMT 43.677109 -80.615891 24,275 254 357 1536
2020-02-17 15:37:13 GMT 43.678520 -80.609306 24,200 254 357 1536
2020-02-17 15:37:10 GMT 43.679718 -80.603622 24,125 254 357 1472
2020-02-17 15:37:06 GMT 43.681175 -80.596687 24,050 254 356 1408
2020-02-17 15:37:03 GMT 43.682804 -80.589035 23,975 254 355 1344
2020-02-17 15:37:00 GMT 43.684616 -80.580307 23,925 254 354 1280
2020-02-17 15:36:56 GMT 43.686249 -80.572487 23,825 254 352 1216
2020-02-17 15:36:53 GMT 43.687134 -80.568169 23,775 255 352 1216
2020-02-17 15:36:49 GMT 43.689148 -80.558464 23,675 254 350 1408
2020-02-17 15:36:46 GMT 43.692398 -80.543007 23,575 254 350 1664
2020-02-17 15:36:39 GMT 43.693680 -80.536812 23,400 254 349 2112
2020-02-17 15:36:35 GMT 43.695652 -80.527367 23,250 254 349 2368
2020-02-17 15:36:32 GMT 43.698349 -80.514519 23,075 254 350 2688
2020-02-17 15:36:29 GMT 43.698349 -80.514519 22,975 254 351 2944
2020-02-17 15:36:25 GMT 43.700169 -80.505852 22,775 254 353 3328
2020-02-17 15:36:19 GMT 43.702469 -80.494843 22,325 254 357 3200
2020-02-17 15:36:16 GMT 43.704498 -80.485252 22,100 254 359 2944
2020-02-17 15:36:13 GMT 43.705856 -80.478622 22,100 254 359 2944
2020-02-17 15:36:07 GMT 43.707870 -80.469170 21,875 254 361 2816
2020-02-17 15:36:04 GMT 43.709805 -80.459877 21,675 254 362 2752
2020-02-17 15:35:58 GMT 43.712585 -80.446304 21,425 255 363 2496
2020-02-17 15:35:52 GMT 43.714832 -80.435616 21,250 255 364 2560
2020-02-17 15:35:49 GMT 43.716183 -80.429146 21,100 254 364 2560
2020-02-17 15:35:45 GMT 43.718811 -80.416412 20,825 254 365 2112
2020-02-17 15:35:42 GMT 43.720001 -80.410835 20,775 254 364 1856
2020-02-17 15:35:38 GMT 43.721695 -80.402802 20,625 254 362 1728
2020-02-17 15:35:33 GMT 43.723679 -80.393440 20,600 254 362 1856
2020-02-17 15:35:30 GMT 43.725311 -80.385880 20,450 254 362 1920
2020-02-17 15:35:27 GMT 43.727261 -80.377090 20,300 254 360 2112
2020-02-17 15:35:23 GMT 43.729019 -80.368698 20,175 256 359 2176
2020-02-17 15:35:16 GMT 43.731537 -80.353943 19,925 262 357 2240
2020-02-17 15:35:12 GMT 43.733128 -80.336937 19,625 268 356 2496
2020-02-17 15:35:09 GMT 43.733360 -80.330856 19,525 270 356 2496
2020-02-17 15:35:02 GMT 43.733406 -80.321503 19,350 270 357 2304
2020-02-17 15:34:59 GMT 43.733414 -80.316254 19,200 268 357 2112
2020-02-17 15:34:56 GMT 43.733547 -80.307182 19,125 267 356 1984
2020-02-17 15:34:53 GMT 43.733871 -80.299660 18,950 265 356 1920
2020-02-17 15:34:50 GMT 43.734245 -80.294037 19,000 264 356 1856
2020-02-17 15:34:45 GMT 43.735199 -80.284126 18,800 260 355 1920
2020-02-17 15:34:42 GMT 43.736115 -80.277229 18,700 258 354 2048
2020-02-17 15:34:39 GMT 43.737129 -80.270561 18,525 258 352 2176
2020-02-17 15:34:35 GMT 43.738632 -80.261322 18,450 258 352 2176
2020-02-17 15:34:31 GMT 43.740295 -80.251266 18,150 258 351 2240
2020-02-17 15:34:23 GMT 43.743835 -80.229561 17,950 258 350 2304
2020-02-17 15:34:17 GMT 43.745270 -80.220825 17,750 258 349 2176
2020-02-17 15:34:11 GMT 43.748291 -80.202110 17,225 258 344 2816
2020-02-17 15:34:08 GMT 43.748291 -80.202110 17,450 258 348 2240
2020-02-17 15:34:04 GMT 43.749573 -80.194130 17,375 258 347 2304
2020-02-17 15:34:00 GMT 43.751003 -80.185478 17,150 258 346 2304
2020-02-17 15:33:57 GMT 43.752045 -80.178986 16,975 258 345 2368
2020-02-17 15:33:54 GMT 43.753281 -80.171455 16,900 258 345 2432
2020-02-17 15:33:50 GMT 43.754700 -80.162636 16,725 258 344 2688
2020-02-17 15:33:47 GMT 43.755753 -80.156181 16,575 258 344 2944
2020-02-17 15:33:43 GMT 43.756943 -80.148903 16,400 258 345 2944
2020-02-17 15:33:38 GMT 43.758869 -80.136894 16,150 258 345 2688
2020-02-17 15:33:35 GMT 43.759918 -80.130447 15,975 258 344 2752
2020-02-17 15:33:32 GMT 43.760468 -80.127190 15,950 258 344 2752
2020-02-17 15:33:26 GMT 43.763016 -80.111519 15,625 258 343 2560
2020-02-17 15:33:22 GMT 43.764496 -80.102531 15,450 258 343 2560
2020-02-17 15:33:18 GMT 43.765808 -80.094452 15,300 258 342 2688
2020-02-17 15:33:15 GMT 43.766644 -80.089088 15,175 258 342 2816
2020-02-17 15:33:11 GMT 43.769112 -80.073982 14,775 258 342 3136
2020-02-17 15:33:08 GMT 43.769112 -80.073982 14,675 258 342 3136
2020-02-17 15:33:05 GMT 43.770355 -80.066315 14,625 258 342 3136
2020-02-17 15:33:01 GMT 43.771362 -80.060120 14,475 258 342 3200
2020-02-17 15:32:57 GMT 43.772919 -80.050476 14,250 258 343 3200
2020-02-17 15:32:54 GMT 43.773952 -80.044098 14,075 258 343 3200
2020-02-17 15:32:50 GMT 43.775166 -80.036644 13,925 258 343 3136
2020-02-17 15:32:47 GMT 43.776142 -80.030434 13,575 258 343 2944
2020-02-17 15:32:44 GMT 43.777634 -80.021416 13,400 258 342 2624
2020-02-17 15:32:36 GMT 43.780098 -80.006493 13,250 258 340 2560
2020-02-17 15:32:33 GMT 43.781307 -79.999107 13,075 258 339 2880
2020-02-17 15:32:27 GMT 43.783630 -79.984688 12,575 258 338 2880
2020-02-17 15:32:23 GMT 43.785778 -79.971642 12,450 258 338 2816
2020-02-17 15:32:17 GMT 43.787128 -79.963402 12,225 258 337 2752
2020-02-17 15:32:14 GMT 43.787968 -79.958168 12,225 258 337 2752
2020-02-17 15:32:10 GMT 43.789177 -79.950783 11,975 258 335 2432
2020-02-17 15:32:05 GMT 43.791138 -79.938507 11,775 258 332 1856
2020-02-17 15:32:02 GMT 43.792099 -79.932693 11,625 258 328 1536
2020-02-17 15:31:59 GMT 43.793694 -79.922661 11,575 258 324 1280
2020-02-17 15:31:52 GMT 43.794846 -79.915314 11,500 258 320 1216
2020-02-17 15:31:49 GMT 43.796036 -79.908096 11,425 258 316 1216
2020-02-17 15:31:46 GMT 43.796997 -79.901970 11,325 258 311 1280
2020-02-17 15:31:43 GMT 43.798302 -79.893753 11,275 258 308 1344
2020-02-17 15:31:39 GMT 43.799187 -79.888199 11,200 258 305 1344
2020-02-17 15:31:35 GMT 43.800442 -79.880417 11,100 258 296 1344
2020-02-17 15:31:32 GMT 43.801327 -79.874924 11,075 258 299 1344
2020-02-17 15:31:29 GMT 43.802399 -79.868240 10,950 258 291 1344
2020-02-17 15:31:26 GMT 43.803234 -79.862953 10,900 258 288 1344
2020-02-17 15:31:23 GMT 43.804001 -79.858276 10,750 258 280 1344
2020-02-17 15:31:20 GMT 43.804962 -79.852020 10,775 258 280 1344
2020-02-17 15:31:13 GMT 43.807343 -79.837135 10,575 258 269 1536
2020-02-17 15:31:07 GMT 43.808304 -79.830879 10,475 258 264 1664
2020-02-17 15:31:04 GMT 43.809055 -79.826073 10,250 258 261 1792
2020-02-17 15:31:01 GMT 43.810078 -79.819725 10,275 258 257 2048
2020-02-17 15:30:58 GMT 43.811008 -79.813774 10,150 258 253 2816
2020-02-17 15:30:53 GMT 43.811783 -79.809029 10,025 258 252 2880
2020-02-17 15:30:50 GMT 43.812870 -79.802071 9,850 258 251 3456
2020-02-17 15:30:47 GMT 43.813850 -79.796318 9,625 258 251 3648
2020-02-17 15:30:44 GMT 43.814407 -79.792854 9,250 258 251 3328
2020-02-17 15:30:40 GMT 43.815201 -79.788010 9,175 258 251 3520
2020-02-17 15:30:37 GMT 43.816036 -79.782845 9,050 258 251 3456
2020-02-17 15:30:34 GMT 43.817871 -79.771729 8,800 258 251 3392
2020-02-17 15:30:30 GMT 43.817871 -79.771729 8,650 258 249 3136
2020-02-17 15:30:27 GMT 43.819435 -79.762047 8,400 258 247 3136
2020-02-17 15:30:20 GMT 43.820526 -79.755188 7,975 258 245 3584
2020-02-17 15:30:15 GMT 43.821575 -79.748772 7,850 258 245 3648
2020-02-17 15:30:11 GMT 43.822357 -79.743813 7,425 259 246 3584
2020-02-17 15:30:08 GMT 43.823067 -79.739227 7,525 259 246 3712
2020-02-17 15:30:05 GMT 43.824509 -79.729828 7,175 259 245 2752
2020-02-17 15:30:02 GMT 43.825485 -79.723335 6,925 259 244 2496
2020-02-17 15:29:59 GMT 43.825485 -79.723335 6,925 259 244 2304
2020-02-17 15:29:56 GMT 43.826138 -79.718956 6,800 259 242 1728
2020-02-17 15:29:53 GMT 43.826843 -79.714241 6,750 259 242 1280
2020-02-17 15:29:49 GMT 43.828537 -79.702805 6,650 259 243 640
2020-02-17 15:29:45 GMT 43.828537 -79.702805 6,625 258 243 64
2020-02-17 15:29:41 GMT 43.829723 -79.695213 6,625 257 243 0
2020-02-17 15:29:38 GMT 43.830189 -79.692146 6,625 258 243 -64
2020-02-17 15:29:34 GMT 43.831028 -79.687172 6,625 257 243 0
2020-02-17 15:29:31 GMT 43.831741 -79.682945 6,625 266 240 0
2020-02-17 15:29:28 GMT 43.832981 -79.675667 6,625 258 242 64
2020-02-17 15:29:25 GMT 43.833618 -79.671700 6,625 260 242 64
2020-02-17 15:29:22 GMT 43.834286 -79.666969 6,625 263 240 64
2020-02-17 15:29:19 GMT 43.834660 -79.663170 6,625 270 241 0
2020-02-17 15:29:16 GMT 43.834843 -79.659645 6,625 271 241 -64
2020-02-17 15:29:13 GMT 43.834797 -79.653885 6,625 278 240 -64
2020-02-17 15:29:09 GMT 43.833729 -79.642899 6,625 280 241 0
2020-02-17 15:29:03 GMT 43.833401 -79.639824 6,625 280 241 0
2020-02-17 15:29:00 GMT 43.832886 -79.635612 6,625 280 241 0
2020-02-17 15:28:57 GMT 43.832237 -79.629822 6,625 280 241 0
2020-02-17 15:28:54 GMT 43.831585 -79.624458 6,625 280 242 0
2020-02-17 15:28:51 GMT 43.830688 -79.616837 6,625 280 242 0
2020-02-17 15:28:45 GMT 43.830143 -79.612297 6,625 280 242 0
2020-02-17 15:28:40 GMT 43.829166 -79.603729 6,625 280 243 0
2020-02-17 15:28:35 GMT 43.828186 -79.595619 6,625 280 243 0
2020-02-17 15:28:32 GMT 43.827068 -79.586403 6,625 280 243 -64
2020-02-17 15:28:26 GMT 43.826653 -79.582741 6,625 280 243 -64
2020-02-17 15:28:21 GMT 43.825470 -79.573402 6,625 280 243 -64
2020-02-17 15:28:18 GMT 43.825104 -79.570145 6,625 280 243 0
2020-02-17 15:28:15 GMT 43.824326 -79.564201 6,625 281 243 -64
2020-02-17 15:28:10 GMT 43.823227 -79.555771 6,625 281 243 -64
2020-02-17 15:28:07 GMT 43.822311 -79.548874 6,625 281 243 0
2020-02-17 15:28:04 GMT 43.822311 -79.548874 6,625 281 243 0
2020-02-17 15:28:01 GMT 43.821762 -79.544876 6,625 281 243 -64
2020-02-17 15:27:58 GMT 43.821018 -79.539513 6,625 281 243 -64
2020-02-17 15:27:54 GMT 43.820179 -79.532974 6,625 280 242 0
2020-02-17 15:27:51 GMT 43.819668 -79.529312 6,625 280 243 -64
2020-02-17 15:27:47 GMT 43.819016 -79.523773 6,625 280 243 -64
2020-02-17 15:27:44 GMT 43.818100 -79.516106 6,625 280 242 0
2020-02-17 15:27:39 GMT 43.816818 -79.505760 6,625 282 242 128
2020-02-17 15:27:33 GMT 43.815170 -79.497520 6,625 292 241 64
2020-02-17 15:27:27 GMT 43.813889 -79.493362 6,625 299 243 64
2020-02-17 15:27:23 GMT 43.810871 -79.486214 6,600 308 245 192
2020-02-17 15:27:20 GMT 43.809631 -79.483849 6,600 312 245 256
2020-02-17 15:27:17 GMT 43.807144 -79.479874 6,600 319 248 256
2020-02-17 15:27:14 GMT 43.804184 -79.476181 6,575 323 250 320
2020-02-17 15:27:11 GMT 43.801254 -79.473244 6,550 331 252 512
2020-02-17 15:27:07 GMT 43.797043 -79.470055 6,525 333 253 576
2020-02-17 15:27:04 GMT 43.793739 -79.468300 6,450 350 259 1088
2020-02-17 15:27:00 GMT 43.788666 -79.466530 6,375 354 260 1280
2020-02-17 15:26:55 GMT 43.783730 -79.466072 6,300 3 263 1600
2020-02-17 15:26:52 GMT 43.779510 -79.466408 6,200 9 265 1920
2020-02-17 15:26:48 GMT 43.776215 -79.467110 6,100 14 267 2048
2020-02-17 15:26:45 GMT 43.771114 -79.468948 5,950 20 268 2432
2020-02-17 15:26:41 GMT 43.767342 -79.470779 5,825 25 267 2752
2020-02-17 15:26:36 GMT 43.761013 -79.475357 5,425 48 244 2176
2020-02-17 15:26:32 GMT 43.757614 -79.478500 5,350 41 264 2880
2020-02-17 15:26:29 GMT 43.754333 -79.482506 5,325 43 263 2944
2020-02-17 15:26:26 GMT 43.751328 -79.486931 5,025 48 261 3200
2020-02-17 15:26:23 GMT 43.750214 -79.488632 4,950 48 260 3072
2020-02-17 15:26:20 GMT 43.747787 -79.492409 4,800 48 259 2880
2020-02-17 15:26:17 GMT 43.745407 -79.496178 4,650 48 257 2880
2020-02-17 15:26:14 GMT 43.740623 -79.503677 4,275 48 249 2368
2020-02-17 15:26:08 GMT 43.737991 -79.507736 4,250 48 247 2368
2020-02-17 15:26:05 GMT 43.732895 -79.515579 4,000 48 240 2240
2020-02-17 15:26:02 GMT 43.732895 -79.515579 4,000 48 240 2240
2020-02-17 15:25:58 GMT 43.730255 -79.519684 3,875 48 235 2240
2020-02-17 15:25:52 GMT 43.726608 -79.525253 3,700 47 229 2176
2020-02-17 15:25:49 GMT 43.724094 -79.529045 3,575 47 222 2048
2020-02-17 15:25:43 GMT 43.719635 -79.535843 3,350 47 215 1920
2020-02-17 15:25:40 GMT 43.717804 -79.538589 3,275 47 210 1792
2020-02-17 15:25:36 GMT 43.715469 -79.542099 3,175 47 206 1536
2020-02-17 15:25:33 GMT 43.710983 -79.548805 3,000 47 193 1344
2020-02-17 15:25:27 GMT 43.708874 -79.551933 2,925 47 189 1408
2020-02-17 15:25:22 GMT 43.706360 -79.555641 2,875 46 187 1344
2020-02-17 15:25:19 GMT 43.704731 -79.558083 2,750 46 177 1664
2020-02-17 15:25:15 GMT 43.702835 -79.560814 2,675 46 176 1600
2020-02-17 15:25:12 GMT 43.700447 -79.564293 2,550 46 171 1792
2020-02-17 15:25:08 GMT 43.698349 -79.567329 2,450 47 166 1728
2020-02-17 15:25:01 GMT 43.694824 -79.572632 2,250 47 159 1856
2020-02-17 15:24:55 GMT 43.691574 -79.577492 2,050 47 154 1856
2020-02-17 15:24:51 GMT 43.689739 -79.580254 1,925 47 150 1984
2020-02-17 15:24:47 GMT 43.688393 -79.582344 1,825 47 147 2752
2020-02-17 15:24:42 GMT 43.685806 -79.586304 1,675 48 143 1984
We lost coverage of the aircraft here for a total of 104 minutes
2020-02-17 13:40:59 GMT 43.676846 -79.660164 175 46 121 -320
2020-02-17 13:40:48 GMT 43.673122 -79.665527 300 46 121 -768
2020-02-17 13:40:38 GMT 43.664742 -79.677689 675 46 121 -768
2020-02-17 13:40:27 GMT 43.664742 -79.677689 550 47 122 -640
2020-02-17 13:40:18 GMT 43.660904 -79.683327 675 46 121 -704
2020-02-17 13:40:13 GMT 43.657700 -79.687988 775 46 123 -640
2020-02-17 13:40:06 GMT 43.656509 -79.689781 800 46 122 -896
2020-02-17 13:40:03 GMT 43.654873 -79.692146 850 46 121 -640
2020-02-17 13:39:57 GMT 43.652733 -79.695213 925 46 122 -640
2020-02-17 13:39:53 GMT 43.651520 -79.696983 950 46 123 -704
2020-02-17 13:39:46 GMT 43.648823 -79.700905 1,050 46 121 -704
2020-02-17 13:39:43 GMT 43.646530 -79.704216 1,100 46 121 -704
2020-02-17 13:39:36 GMT 43.644562 -79.707085 1,550 47 135 -768
2020-02-17 13:39:31 GMT 43.642536 -79.710060 1,200 46 122 -704
2020-02-17 13:39:25 GMT 43.640305 -79.713287 1,300 46 124 -640
2020-02-17 13:39:22 GMT 43.638489 -79.715950 1,350 46 124 -640
2020-02-17 13:39:14 GMT 43.636299 -79.719017 1,400 46 127 -768
2020-02-17 13:39:10 GMT 43.634079 -79.722229 1,475 46 130 -768
2020-02-17 13:39:05 GMT 43.631012 -79.726700 1,550 47 135 -768
2020-02-17 13:39:02 GMT 43.631012 -79.726700 1,550 47 136 -832
2020-02-17 13:38:57 GMT 43.629318 -79.729187 1,600 47 139 -896
2020-02-17 13:38:54 GMT 43.627640 -79.731705 1,675 46 142 -1024
2020-02-17 13:38:51 GMT 43.626343 -79.733536 1,700 46 145 -1024
2020-02-17 13:38:48 GMT 43.625267 -79.735107 1,775 45 148 -896
2020-02-17 13:38:44 GMT 43.622681 -79.738770 1,825 46 156 -640
2020-02-17 13:38:37 GMT 43.619354 -79.743477 1,925 46 160 -960
2020-02-17 13:38:33 GMT 43.617325 -79.746498 2,250 46 165 -960
2020-02-17 13:38:27 GMT 43.614304 -79.750969 2,100 46 166 -1024
2020-02-17 13:38:23 GMT 43.611626 -79.754921 2,175 46 171 -1088
2020-02-17 13:38:18 GMT 43.609203 -79.758385 2,300 46 174 -1152
2020-02-17 13:38:15 GMT 43.607574 -79.760681 2,300 46 176 -1088
2020-02-17 13:38:11 GMT 43.605835 -79.763229 2,350 46 178 -1024
2020-02-17 13:38:08 GMT 43.603134 -79.767128 2,425 46 184 -896
2020-02-17 13:38:03 GMT 43.600407 -79.771072 2,500 46 189 -768
2020-02-17 13:38:00 GMT 43.598545 -79.773758 2,525 46 189 -960
2020-02-17 13:37:56 GMT 43.596775 -79.776306 2,575 46 189 -1216
2020-02-17 13:37:51 GMT 43.593430 -79.781052 2,650 46 190 -192
2020-02-17 13:37:47 GMT 43.590820 -79.784821 2,650 46 197 128
2020-02-17 13:37:42 GMT 43.587791 -79.789124 2,625 45 205 0
2020-02-17 13:37:39 GMT 43.585968 -79.791656 2,650 45 210 -64
2020-02-17 13:37:36 GMT 43.581940 -79.797470 2,650 45 207 -64
2020-02-17 13:37:32 GMT 43.581940 -79.797470 2,650 45 210 -64
2020-02-17 13:37:29 GMT 43.578899 -79.801743 2,650 45 210 64
2020-02-17 13:37:24 GMT 43.576061 -79.805603 2,650 44 210 64
2020-02-17 13:37:21 GMT 43.573563 -79.808968 2,650 47 210 64
2020-02-17 13:37:18 GMT 43.571869 -79.811356 2,650 48 211 64
2020-02-17 13:37:15 GMT 43.569672 -79.814781 2,650 51 211 0
2020-02-17 13:37:11 GMT 43.567017 -79.819572 2,650 60 214 64
2020-02-17 13:37:08 GMT 43.565727 -79.822281 2,650 64 215 0
2020-02-17 13:37:05 GMT 43.564499 -79.825508 2,650 69 216 0
2020-02-17 13:37:01 GMT 43.562931 -79.831825 2,650 74 215 0
2020-02-17 13:36:58 GMT 43.562283 -79.835487 2,650 78 214 64
2020-02-17 13:36:53 GMT 43.561157 -79.842819 2,650 78 214 64
2020-02-17 13:36:47 GMT 43.560184 -79.849548 2,650 78 216 0
2020-02-17 13:36:44 GMT 43.559692 -79.853043 2,650 78 217 -64
2020-02-17 13:36:40 GMT 43.558601 -79.860077 2,650 78 217 -64
2020-02-17 13:36:36 GMT 43.556881 -79.871452 2,675 78 219 0
2020-02-17 13:36:31 GMT 43.556881 -79.871452 2,675 78 220 0
2020-02-17 13:36:28 GMT 43.555717 -79.879173 3,200 79 252 -1152
2020-02-17 13:36:22 GMT 43.555019 -79.883812 2,650 78 227 -64
2020-02-17 13:36:19 GMT 43.554337 -79.888359 2,650 78 232 -64
2020-02-17 13:36:16 GMT 43.553696 -79.892517 2,650 78 234 -64
2020-02-17 13:36:12 GMT 43.552872 -79.897942 2,675 78 239 -128
2020-02-17 13:36:08 GMT 43.551994 -79.903893 2,675 78 243 -256
2020-02-17 13:36:05 GMT 43.551407 -79.907654 2,675 78 243 -256
2020-02-17 13:36:02 GMT 43.550781 -79.911934 3,000 79 254 -1472
2020-02-17 13:35:56 GMT 43.548363 -79.928612 2,800 79 251 -960
2020-02-17 13:35:52 GMT 43.548363 -79.928612 2,825 79 252 -1088
2020-02-17 13:35:47 GMT 43.546738 -79.940163 2,950 79 254 -1472
2020-02-17 13:35:41 GMT 43.545986 -79.945679 3,050 79 254 -1472
2020-02-17 13:35:35 GMT 43.544636 -79.955551 3,275 79 257 -1280
2020-02-17 13:35:31 GMT 43.543659 -79.962486 3,300 79 257 -1280
2020-02-17 13:35:27 GMT 43.542801 -79.968910 3,425 78 260 -1152
2020-02-17 13:35:24 GMT 43.542126 -79.973602 3,450 78 260 -1152
2020-02-17 13:35:15 GMT 43.539703 -79.989098 3,625 77 265 -1280
2020-02-17 13:35:11 GMT 43.538589 -79.995987 3,725 77 265 -1536
2020-02-17 13:35:03 GMT 43.536491 -80.008720 3,925 77 267 -2304
2020-02-17 13:34:58 GMT 43.535385 -80.015724 4,150 78 266 -2496
2020-02-17 13:34:55 GMT 43.534348 -80.022385 4,325 78 266 -2432
2020-02-17 13:34:52 GMT 43.533875 -80.025696 4,350 78 266 -2304
2020-02-17 13:34:48 GMT 43.532997 -80.031349 4,525 78 267 -2048
2020-02-17 13:34:45 GMT 43.532116 -80.037361 4,625 78 269 -1792
2020-02-17 13:34:39 GMT 43.530624 -80.047104 4,925 78 274 -1728
2020-02-17 13:34:35 GMT 43.528381 -80.062294 5,000 78 275 -1728
2020-02-17 13:34:31 GMT 43.528381 -80.062294 5,350 78 280 -1728
2020-02-17 13:34:25 GMT 43.526623 -80.073463 5,225 78 280 -1728
2020-02-17 13:34:21 GMT 43.525864 -80.078514 5,325 78 281 -1600
2020-02-17 13:34:13 GMT 43.523849 -80.091545 5,525 78 285 -1664
2020-02-17 13:34:10 GMT 43.523117 -80.096657 5,575 78 286 -1664
2020-02-17 13:34:03 GMT 43.520966 -80.111031 5,825 78 290 -2048
2020-02-17 13:34:00 GMT 43.518707 -80.126427 5,950 78 290 -2112
2020-02-17 13:33:51 GMT 43.517715 -80.133316 6,200 78 292 -2048
2020-02-17 13:33:42 GMT 43.515450 -80.148468 6,500 78 297 0
2020-02-17 13:33:39 GMT 43.514648 -80.153755 6,550 78 295 -1024
2020-02-17 13:33:35 GMT 43.513680 -80.160172 6,600 78 296 -768
2020-02-17 13:33:30 GMT 43.511719 -80.173111 6,650 78 297 -64
2020-02-17 13:33:23 GMT 43.510025 -80.184547 6,650 78 297 0
2020-02-17 13:33:19 GMT 43.509071 -80.190842 6,650 78 297 0
2020-02-17 13:33:15 GMT 43.507816 -80.199150 6,650 78 297 0
2020-02-17 13:33:11 GMT 43.506699 -80.206734 6,650 78 296 64
2020-02-17 13:33:08 GMT 43.506092 -80.210793 6,650 78 296 64
2020-02-17 13:33:05 GMT 43.505356 -80.215591 6,650 78 296 0
2020-02-17 13:33:02 GMT 43.504276 -80.222954 6,650 78 296 64
2020-02-17 13:32:59 GMT 43.503204 -80.230148 6,650 78 295 64
2020-02-17 13:32:53 GMT 43.501995 -80.238258 6,650 78 295 0
2020-02-17 13:32:50 GMT 43.501205 -80.243423 6,650 78 295 0
2020-02-17 13:32:47 GMT 43.500412 -80.248932 6,650 78 295 0
2020-02-17 13:32:41 GMT 43.498444 -80.262215 6,650 78 296 0
2020-02-17 13:32:38 GMT 43.497478 -80.268532 6,650 78 296 0
2020-02-17 13:32:34 GMT 43.495663 -80.280891 6,650 78 296 64
2020-02-17 13:32:30 GMT 43.494690 -80.287384 6,650 78 296 64
2020-02-17 13:32:27 GMT 43.494690 -80.287384 6,650 78 296 64
2020-02-17 13:32:24 GMT 43.493801 -80.293648 6,650 78 296 64
2020-02-17 13:32:20 GMT 43.492779 -80.300514 6,650 78 296 64
2020-02-17 13:32:17 GMT 43.491898 -80.306419 6,650 78 296 0
2020-02-17 13:32:14 GMT 43.491196 -80.311234 6,650 78 296 0
2020-02-17 13:32:10 GMT 43.489746 -80.320854 6,650 78 296 0
2020-02-17 13:32:06 GMT 43.489056 -80.325691 6,650 78 296 0
2020-02-17 13:32:02 GMT 43.488007 -80.332672 6,650 78 296 0
2020-02-17 13:31:59 GMT 43.487091 -80.339188 6,650 78 296 -64
2020-02-17 13:31:56 GMT 43.485535 -80.349724 6,650 78 296 -64
2020-02-17 13:31:53 GMT 43.485535 -80.349724 6,675 78 296 -64
2020-02-17 13:31:49 GMT 43.484165 -80.358971 6,675 78 296 -128
2020-02-17 13:31:45 GMT 43.482445 -80.370354 6,700 77 294 -192
2020-02-17 13:31:37 GMT 43.480225 -80.384087 6,750 77 294 -512
2020-02-17 13:31:31 GMT 43.479046 -80.391342 6,775 77 294 -640
2020-02-17 13:31:28 GMT 43.478256 -80.396477 6,825 81 298 -1088
2020-02-17 13:31:25 GMT 43.477367 -80.403114 6,875 83 300 -1280
2020-02-17 13:31:20 GMT 43.476952 -80.409393 6,950 87 302 -1280
2020-02-17 13:31:17 GMT 43.476791 -80.417046 7,025 92 305 -1280
2020-02-17 13:31:14 GMT 43.477043 -80.422798 7,100 97 307 -1344
2020-02-17 13:31:08 GMT 43.478302 -80.433594 7,225 104 309 -1664
2020-02-17 13:31:04 GMT 43.482193 -80.449371 7,500 116 309 -1984
2020-02-17 13:30:55 GMT 43.486122 -80.459419 7,700 128 310 -2048
2020-02-17 13:30:48 GMT 43.492172 -80.470573 7,925 133 310 -2112
2020-02-17 13:30:45 GMT 43.493637 -80.472748 7,975 135 311 -2176
2020-02-17 13:30:41 GMT 43.499222 -80.479965 8,075 141 310 -2368
2020-02-17 13:30:37 GMT 43.502792 -80.483604 8,325 148 307 -2752
2020-02-17 13:30:33 GMT 43.507629 -80.487801 8,550 154 304 -2944
2020-02-17 13:30:30 GMT 43.511257 -80.490417 8,650 159 301 -2880
2020-02-17 13:30:25 GMT 43.519226 -80.494652 8,925 164 299 -2688
2020-02-17 13:30:19 GMT 43.525970 -80.496895 9,150 172 295 -2624
2020-02-17 13:30:12 GMT 43.535294 -80.497978 9,375 179 291 -2752
2020-02-17 13:30:09 GMT 43.539562 -80.497742 9,625 188 285 -2816
2020-02-17 13:30:05 GMT 43.545822 -80.496635 9,850 194 280 -2560
2020-02-17 13:30:02 GMT 43.553204 -80.494148 10,100 201 277 -1984
2020-02-17 13:29:55 GMT 43.557587 -80.492035 10,225 204 277 -1664
2020-02-17 13:29:48 GMT 43.565212 -80.487541 10,375 208 277 -1216
2020-02-17 13:29:43 GMT 43.574432 -80.480415 10,475 213 281 -896
2020-02-17 13:29:40 GMT 43.574432 -80.480415 10,525 216 283 -960
2020-02-17 13:29:36 GMT 43.578247 -80.476685 10,575 219 284 -1024
2020-02-17 13:29:32 GMT 43.582077 -80.472107 10,650 230 285 -1088
2020-02-17 13:29:28 GMT 43.585876 -80.466423 10,750 249 288 -1216
2020-02-17 13:29:23 GMT 43.590027 -80.457458 10,875 249 288 -1280
2020-02-17 13:29:20 GMT 43.591515 -80.452621 10,900 251 289 -1280
2020-02-17 13:29:12 GMT 43.594448 -80.433327 11,100 267 294 -1536
2020-02-17 13:29:09 GMT 43.594448 -80.433327 11,175 271 296 -1600
2020-02-17 13:29:05 GMT 43.593891 -80.421036 11,300 280 299 -1792
2020-02-17 13:29:02 GMT 43.593891 -80.421036 11,350 283 301 -1920
2020-02-17 13:28:59 GMT 43.592651 -80.413788 13,000 289 303 -2176
2020-02-17 13:28:56 GMT 43.591328 -80.408867 11,500 291 304 -2240
2020-02-17 13:28:52 GMT 43.589329 -80.402657 11,725 304 309 -3072
2020-02-17 13:28:48 GMT 43.583679 -80.391495 12,175 313 309 -4480
2020-02-17 13:28:39 GMT 43.577782 -80.383690 12,625 324 313 -4224
2020-02-17 13:28:36 GMT 43.572987 -80.378792 12,875 330 316 -3584
2020-02-17 13:28:30 GMT 43.567657 -80.374504 13,100 334 321 -3328
2020-02-17 13:28:27 GMT 43.562096 -80.370613 13,350 336 325 -3328
2020-02-17 13:28:21 GMT 43.553623 -80.365646 13,750 344 330 -3904
2020-02-17 13:28:18 GMT 43.548615 -80.363457 13,950 350 336 -4032
2020-02-17 13:28:15 GMT 43.546371 -80.362816 14,025 351 338 -4032
2020-02-17 13:28:11 GMT 43.539516 -80.361458 14,425 0 347 -3840
2020-02-17 13:28:08 GMT 43.535561 -80.361069 14,425 0 347 -3840
2020-02-17 13:28:05 GMT 43.528622 -80.361328 14,750 7 354 -3968
2020-02-17 13:27:59 GMT 43.520828 -80.362885 15,075 14 362 -3968
2020-02-17 13:27:56 GMT 43.514511 -80.365051 15,325 18 368 -3904
2020-02-17 13:27:53 GMT 43.510979 -80.366692 15,525 64 413 -3904
2020-02-17 13:27:49 GMT 43.502926 -80.371529 15,825 29 380 -4160
2020-02-17 13:27:44 GMT 43.495377 -80.377640 16,100 34 385 -4160
2020-02-17 13:27:38 GMT 43.488098 -80.385178 16,550 42 392 -4480
2020-02-17 13:27:34 GMT 43.481186 -80.394218 17,150 49 398 -4352
2020-02-17 13:27:29 GMT 43.475555 -80.403503 17,275 54 403 -4096
2020-02-17 13:27:25 GMT 43.472759 -80.408867 17,575 60 410 -3840
2020-02-17 13:27:22 GMT 43.469688 -80.415672 17,650 61 411 -3840
2020-02-17 13:27:19 GMT 43.465805 -80.425735 17,950 68 415 -4032
2020-02-17 13:27:15 GMT 43.462875 -80.435699 18,250 72 419 -4224
2020-02-17 13:27:07 GMT 43.459213 -80.453537 18,575 79 424 -3712
2020-02-17 13:27:03 GMT 43.457863 -80.464714 19,000 86 430 -3008
2020-02-17 13:26:57 GMT 43.456970 -80.480408 19,225 88 436 -2432
2020-02-17 13:26:53 GMT 43.456745 -80.493095 19,400 88 437 -2432
2020-02-17 13:26:48 GMT 43.456467 -80.516708 19,650 88 439 -2432
2020-02-17 13:26:45 GMT 43.456375 -80.522263 19,775 88 440 -2368
2020-02-17 13:26:39 GMT 43.456192 -80.534897 20,000 88 441 -2304
2020-02-17 13:26:36 GMT 43.456009 -80.548630 20,150 88 443 -2240
2020-02-17 13:26:32 GMT 43.456009 -80.548630 20,175 88 443 -2176
2020-02-17 13:26:29 GMT 43.455631 -80.567451 20,350 88 446 -2048
2020-02-17 13:26:26 GMT 43.455631 -80.567451 20,400 88 446 -2112
2020-02-17 13:26:21 GMT 43.455460 -80.580498 20,650 90 449 -2752
2020-02-17 13:26:18 GMT 43.455723 -80.602959 20,850 92 449 -2944
2020-02-17 13:26:14 GMT 43.455723 -80.602959 21,275 96 449 -3072
2020-02-17 13:26:09 GMT 43.456421 -80.613457 21,175 99 448 -3072
2020-02-17 13:26:06 GMT 43.458664 -80.631599 21,500 101 448 -2880
2020-02-17 13:25:59 GMT 43.460377 -80.641609 21,675 104 449 -2176
2020-02-17 13:25:54 GMT 43.467129 -80.670189 21,800 112 455 -1088
2020-02-17 13:25:50 GMT 43.470291 -80.680000 21,925 116 457 -1536
2020-02-17 13:25:46 GMT 43.470291 -80.680000 21,975 117 458 -1536
2020-02-17 13:25:42 GMT 43.474155 -80.690590 22,050 120 459 -1344
2020-02-17 13:25:38 GMT 43.476719 -80.696999 22,100 121 459 -1344
2020-02-17 13:25:35 GMT 43.480637 -80.705696 22,175 123 460 -1664
2020-02-17 13:25:32 GMT 43.484436 -80.713425 22,275 127 459 -1792
2020-02-17 13:25:29 GMT 43.489334 -80.722237 22,400 129 459 -2048
2020-02-17 13:25:24 GMT 43.499622 -80.738136 22,575 134 456 -2432
2020-02-17 13:25:21 GMT 43.499622 -80.738136 22,675 137 454 -2560
2020-02-17 13:25:18 GMT 43.504322 -80.744347 22,825 138 454 -2432
2020-02-17 13:25:14 GMT 43.516663 -80.758713 23,075 143 451 -1920
2020-02-17 13:25:08 GMT 43.521881 -80.764008 23,275 148 449 -2112
2020-02-17 13:25:05 GMT 43.525505 -80.767365 23,250 148 449 -2112
2020-02-17 13:24:58 GMT 43.539051 -80.778481 23,500 152 445 -2432
2020-02-17 13:24:55 GMT 43.544357 -80.782143 23,675 155 442 -2560
2020-02-17 13:24:51 GMT 43.552040 -80.786919 23,825 159 439 -2368
2020-02-17 13:24:47 GMT 43.560558 -80.791496 24,000 160 438 -2240
2020-02-17 13:24:42 GMT 43.568752 -80.795547 24,100 160 438 -2176
2020-02-17 13:24:39 GMT 43.572571 -80.797379 24,225 161 438 -2240
2020-02-17 13:24:36 GMT 43.584206 -80.802353 24,375 164 436 -2304
2020-02-17 13:24:33 GMT 43.584206 -80.802353 24,450 166 434 -2432
2020-02-17 13:24:29 GMT 43.600639 -80.806992 24,725 171 428 -2624
2020-02-17 13:24:26 GMT 43.605331 -80.807701 24,925 177 421 -2752
2020-02-17 13:24:23 GMT 43.614441 -80.808464 25,075 210 388 -1984
2020-02-17 13:24:19 GMT 43.614441 -80.808464 25,150 179 418 -2688
2020-02-17 13:24:14 GMT 43.621170 -80.808403 25,400 186 411 -2496
2020-02-17 13:24:11 GMT 43.627853 -80.807892 25,450 188 408 -2368
2020-02-17 13:24:08 GMT 43.640350 -80.805557 25,600 190 406 -2304
2020-02-17 13:24:05 GMT 43.640350 -80.805557 25,700 193 404 -2304
2020-02-17 13:24:01 GMT 43.647629 -80.803291 25,800 194 401 -2304
2020-02-17 13:23:57 GMT 43.652966 -80.801308 26,375 211 387 -1920
2020-02-17 13:23:52 GMT 43.663113 -80.796333 26,200 221 379 -2240
2020-02-17 13:23:48 GMT 43.670376 -80.791954 26,350 208 389 -1984
2020-02-17 13:23:44 GMT 43.676289 -80.787704 26,475 211 387 -1920
2020-02-17 13:23:40 GMT 43.681641 -80.783386 26,575 214 385 -1856
2020-02-17 13:23:36 GMT 43.686539 -80.778961 26,675 217 383 -1856
2020-02-17 13:23:32 GMT 43.693542 -80.771614 26,825 221 379 -2240
2020-02-17 13:23:28 GMT 43.698307 -80.765991 27,025 226 376 -2304
2020-02-17 13:23:24 GMT 43.706638 -80.754219 27,175 230 373 -2432
2020-02-17 13:23:21 GMT 43.706638 -80.754219 27,225 231 372 -2496
2020-02-17 13:23:18 GMT 43.709473 -80.749512 27,425 235 369 -2688
2020-02-17 13:23:15 GMT 43.712784 -80.743492 27,575 239 366 -2944
2020-02-17 13:23:11 GMT 43.717484 -80.733803 27,700 240 365 -3008
2020-02-17 13:23:07 GMT 43.719910 -80.727989 27,875 245 361 -2816
2020-02-17 13:23:04 GMT 43.721878 -80.722939 28,000 247 360 -2688
2020-02-17 13:23:00 GMT 43.725025 -80.713348 28,175 251 358 -2432
2020-02-17 13:22:56 GMT 43.728745 -80.698990 28,425 256 355 -1856
2020-02-17 13:22:53 GMT 43.730614 -80.689415 28,500 256 355 -1856
2020-02-17 13:22:49 GMT 43.731777 -80.681236 28,575 260 354 -1344
2020-02-17 13:22:46 GMT 43.731777 -80.681236 28,625 263 353 -960
2020-02-17 13:22:40 GMT 43.733082 -80.666985 28,725 267 353 -512
2020-02-17 13:22:37 GMT 43.733269 -80.662926 28,750 269 353 -256
2020-02-17 13:22:34 GMT 43.733501 -80.653252 28,750 270 353 -128
2020-02-17 13:22:29 GMT 43.733501 -80.644028 28,775 270 352 384
2020-02-17 13:22:26 GMT 43.733505 -80.638176 28,750 270 352 896
2020-02-17 13:22:22 GMT 43.733501 -80.627876 28,650 271 351 1792
2020-02-17 13:22:19 GMT 43.733501 -80.623169 28,600 271 351 1728
2020-02-17 13:22:16 GMT 43.733459 -80.613777 28,475 271 350 1408
2020-02-17 13:22:13 GMT 43.733452 -80.608391 28,425 271 349 1344
2020-02-17 13:22:09 GMT 43.733452 -80.597923 28,325 271 348 1088
2020-02-17 13:22:06 GMT 43.733452 -80.592827 28,275 270 346 1088
2020-02-17 13:22:03 GMT 43.733459 -80.584908 28,225 270 345 1152
2020-02-17 13:22:00 GMT 43.733459 -80.580948 28,200 270 344 1152
2020-02-17 13:21:57 GMT 43.733452 -80.573471 28,150 270 343 1280
2020-02-17 13:21:54 GMT 43.733452 -80.566277 28,050 270 342 1408
2020-02-17 13:21:51 GMT 43.733452 -80.558624 27,975 270 341 1344
2020-02-17 13:21:47 GMT 43.733459 -80.551247 27,900 271 339 1344
2020-02-17 13:21:43 GMT 43.733406 -80.543648 27,825 271 339 1344
2020-02-17 13:21:40 GMT 43.733414 -80.538025 27,425 271 336 1344
2020-02-17 13:21:35 GMT 43.733414 -80.524673 27,650 271 336 1344
2020-02-17 13:21:32 GMT 43.733368 -80.516754 27,550 271 334 1280
2020-02-17 13:21:27 GMT 43.733368 -80.508064 27,400 270 332 1408
2020-02-17 13:21:21 GMT 43.733368 -80.495743 27,275 271 331 1984
2020-02-17 13:21:15 GMT 43.733360 -80.484337 27,075 270 330 2112
2020-02-17 13:21:12 GMT 43.733368 -80.476768 26,875 271 331 2048
2020-02-17 13:21:09 GMT 43.733368 -80.470253 26,925 271 331 2048
2020-02-17 13:21:06 GMT 43.733368 -80.462013 26,825 270 331 2304
2020-02-17 13:21:03 GMT 43.733360 -80.457588 26,675 271 331 2176
2020-02-17 13:21:00 GMT 43.733322 -80.450455 26,450 271 331 1984
2020-02-17 13:20:56 GMT 43.733315 -80.436729 26,350 271 331 2048
2020-02-17 13:20:50 GMT 43.733322 -80.430397 26,175 271 330 2048
2020-02-17 13:20:46 GMT 43.733276 -80.413536 26,075 271 330 2112
2020-02-17 13:20:43 GMT 43.733276 -80.413536 25,975 271 331 2112
2020-02-17 13:20:39 GMT 43.733276 -80.399864 25,725 270 330 1856
2020-02-17 13:20:36 GMT 43.733276 -80.399864 25,725 270 331 2048
2020-02-17 13:20:33 GMT 43.733276 -80.393288 25,625 270 330 1984
2020-02-17 13:20:30 GMT 43.733269 -80.386963 24,475 270 322 1280
2020-02-17 13:20:25 GMT 43.733231 -80.378151 25,375 271 330 1792
2020-02-17 13:20:22 GMT 43.733219 -80.364922 25,250 271 329 1728
2020-02-17 13:20:19 GMT 43.733219 -80.364922 25,225 271 329 1728
2020-02-17 13:20:15 GMT 43.733231 -80.355667 25,100 271 328 1536
2020-02-17 13:20:12 GMT 43.733185 -80.341866 24,950 271 326 1280
2020-02-17 13:20:03 GMT 43.733128 -80.330269 24,850 271 324 1152
2020-02-17 13:19:59 GMT 43.733082 -80.322159 24,750 270 322 1344
2020-02-17 13:19:56 GMT 43.733128 -80.315620 24,675 269 321 1664
2020-02-17 13:19:53 GMT 43.733139 -80.312355 24,650 269 321 1856
2020-02-17 13:19:50 GMT 43.733360 -80.303322 24,500 268 321 2368
2020-02-17 13:19:43 GMT 43.733963 -80.288338 24,250 266 321 2688
2020-02-17 13:19:40 GMT 43.734154 -80.285080 24,100 265 323 2816
2020-02-17 13:19:37 GMT 43.734650 -80.277672 23,925 264 325 2752
2020-02-17 13:19:34 GMT 43.735199 -80.270645 23,875 264 325 2752
2020-02-17 13:19:31 GMT 43.735641 -80.265724 23,575 263 326 2752
2020-02-17 13:19:27 GMT 43.737396 -80.246056 23,200 263 328 2496
2020-02-17 13:19:22 GMT 43.737396 -80.246056 23,000 263 328 2304
2020-02-17 13:19:16 GMT 43.738388 -80.235054 23,025 263 328 2496
2020-02-17 13:19:13 GMT 43.739132 -80.226944 22,900 263 328 2304
2020-02-17 13:19:09 GMT 43.739738 -80.220078 22,775 263 328 2176
2020-02-17 13:19:06 GMT 43.740417 -80.212334 22,650 264 328 1984
2020-02-17 13:19:00 GMT 43.741459 -80.200981 22,550 263 327 1920
2020-02-17 13:18:57 GMT 43.742161 -80.193329 22,200 263 325 2176
2020-02-17 13:18:54 GMT 43.742809 -80.185677 22,225 263 325 2560
2020-02-17 13:18:50 GMT 43.743759 -80.175346 22,025 263 325 2880
2020-02-17 13:18:42 GMT 43.744766 -80.163338 21,775 264 327 3200
2020-02-17 13:18:39 GMT 43.745186 -80.158607 21,550 264 329 3072
2020-02-17 13:18:36 GMT 43.745773 -80.151909 21,475 264 329 2944
2020-02-17 13:18:32 GMT 43.746719 -80.141273 21,200 264 330 2560
2020-02-17 13:18:29 GMT 43.747139 -80.136238 21,050 264 330 2624
2020-02-17 13:18:26 GMT 43.747650 -80.130615 20,950 264 330 2560
2020-02-17 13:18:20 GMT 43.749329 -80.111320 20,600 264 330 2240
2020-02-17 13:18:17 GMT 43.750031 -80.103363 20,525 264 330 2240
2020-02-17 13:18:10 GMT 43.750717 -80.095253 20,325 264 328 2112
2020-02-17 13:18:07 GMT 43.751312 -80.088348 20,175 264 328 2176
2020-02-17 13:18:04 GMT 43.751701 -80.084183 20,100 264 327 2176
2020-02-17 13:17:59 GMT 43.752411 -80.076149 19,950 264 326 2176
2020-02-17 13:17:55 GMT 43.753330 -80.065613 19,775 264 325 2240
2020-02-17 13:17:52 GMT 43.753983 -80.057961 19,625 264 324 2304
2020-02-17 13:17:49 GMT 43.754425 -80.052841 19,375 264 324 2368
2020-02-17 13:17:46 GMT 43.754883 -80.047661 19,400 264 323 2368
2020-02-17 13:17:39 GMT 43.756821 -80.025131 19,050 264 322 2304
2020-02-17 13:17:36 GMT 43.756821 -80.025131 18,775 264 320 2304
2020-02-17 13:17:29 GMT 43.757847 -80.013168 18,775 264 320 2304
2020-02-17 13:17:26 GMT 43.758408 -80.007042 18,675 264 320 2368
2020-02-17 13:17:23 GMT 43.758957 -80.000778 18,600 264 319 2368
2020-02-17 13:17:19 GMT 43.760265 -79.985573 18,275 264 317 2112
2020-02-17 13:17:16 GMT 43.760593 -79.981773 18,200 264 316 2112
2020-02-17 13:17:09 GMT 43.761246 -79.974388 17,775 263 309 2688
2020-02-17 13:17:06 GMT 43.761841 -79.967567 17,825 264 312 2240
2020-02-17 13:17:03 GMT 43.762501 -79.959610 17,775 264 312 2304
2020-02-17 13:17:00 GMT 43.763062 -79.953529 17,675 264 311 2496
2020-02-17 13:16:55 GMT 43.763855 -79.944443 17,375 263 310 2688
2020-02-17 13:16:52 GMT 43.764267 -79.939529 17,350 263 310 2688
2020-02-17 13:16:48 GMT 43.765060 -79.930504 17,075 263 309 2688
2020-02-17 13:16:44 GMT 43.765762 -79.922859 17,025 263 309 2624
2020-02-17 13:16:41 GMT 43.766190 -79.918190 16,875 263 308 2560
2020-02-17 13:16:37 GMT 43.767151 -79.907845 16,650 263 306 2560
2020-02-17 13:16:34 GMT 43.767609 -79.902542 16,575 263 306 2560
2020-02-17 13:16:30 GMT 43.768204 -79.896156 16,400 263 304 2624
2020-02-17 13:16:27 GMT 43.768799 -79.889771 16,250 263 304 2688
2020-02-17 13:16:24 GMT 43.769394 -79.883064 16,125 263 303 2816
2020-02-17 13:16:21 GMT 43.769764 -79.879173 16,050 263 303 2880
2020-02-17 13:16:17 GMT 43.770584 -79.870354 15,750 263 303 3392
2020-02-17 13:16:13 GMT 43.771729 -79.858467 15,375 263 304 3968
2020-02-17 13:16:06 GMT 43.772644 -79.848572 15,025 263 307 4096
2020-02-17 13:16:02 GMT 43.773163 -79.842751 14,825 263 309 4096
2020-02-17 13:15:58 GMT 43.773907 -79.834511 14,525 263 311 3840
2020-02-17 13:15:55 GMT 43.775162 -79.820908 14,250 263 311 3520
2020-02-17 13:15:52 GMT 43.775162 -79.820908 14,125 263 311 3584
2020-02-17 13:15:49 GMT 43.775711 -79.815033 13,950 263 312 3712
2020-02-17 13:15:45 GMT 43.776329 -79.808479 13,500 263 314 3648
2020-02-17 13:15:41 GMT 43.777538 -79.795204 13,200 263 314 3520
2020-02-17 13:15:38 GMT 43.777538 -79.795204 13,200 263 315 3328
2020-02-17 13:15:35 GMT 43.778236 -79.787819 13,100 263 315 3392
2020-02-17 13:15:31 GMT 43.778889 -79.780624 12,950 263 315 3136
2020-02-17 13:15:28 GMT 43.779446 -79.774673 12,850 263 314 2880
2020-02-17 13:15:24 GMT 43.780796 -79.759567 12,550 264 312 2688
2020-02-17 13:15:21 GMT 43.780796 -79.759567 12,375 263 311 2816
2020-02-17 13:15:18 GMT 43.781307 -79.753418 12,275 263 311 2816
2020-02-17 13:15:13 GMT 43.781937 -79.746307 12,100 264 310 2752
2020-02-17 13:15:10 GMT 43.782669 -79.738258 11,875 264 307 2368
2020-02-17 13:15:07 GMT 43.783684 -79.726738 11,725 264 305 2304
2020-02-17 13:15:04 GMT 43.783684 -79.726738 11,675 264 305 2304
2020-02-17 13:14:58 GMT 43.784775 -79.713799 11,425 264 301 1984
2020-02-17 13:14:53 GMT 43.785404 -79.706139 11,300 264 296 1664
2020-02-17 13:14:48 GMT 43.786102 -79.698029 11,175 264 292 1536
2020-02-17 13:14:45 GMT 43.786652 -79.690994 11,050 264 290 1536
2020-02-17 13:14:42 GMT 43.787128 -79.685143 10,975 265 282 1472
2020-02-17 13:14:39 GMT 43.787548 -79.679520 10,900 265 280 1472
2020-02-17 13:14:36 GMT 43.788071 -79.672401 10,850 265 276 1472
2020-02-17 13:14:33 GMT 43.788338 -79.668472 10,800 265 274 1536
2020-02-17 13:14:30 GMT 43.788620 -79.664291 10,675 266 267 1600
2020-02-17 13:14:27 GMT 43.788940 -79.659500 10,675 266 267 1600
2020-02-17 13:14:24 GMT 43.789314 -79.653366 10,550 266 262 1664
2020-02-17 13:14:21 GMT 43.789597 -79.649178 10,500 266 248 1920
2020-02-17 13:14:18 GMT 43.789967 -79.642380 10,325 266 252 1728
2020-02-17 13:14:14 GMT 43.790268 -79.636574 10,300 266 250 1920
2020-02-17 13:14:11 GMT 43.790497 -79.632225 10,250 266 247 2048
2020-02-17 13:14:08 GMT 43.790760 -79.626877 10,150 266 243 3328
2020-02-17 13:14:05 GMT 43.791271 -79.618179 9,775 266 243 3584
2020-02-17 13:14:02 GMT 43.791271 -79.618179 9,775 266 243 3584
2020-02-17 13:13:59 GMT 43.791504 -79.613831 9,100 265 244 3648
2020-02-17 13:13:56 GMT 43.791779 -79.609360 9,475 266 243 3648
2020-02-17 13:13:50 GMT 43.792343 -79.601242 9,100 265 243 3520
2020-02-17 13:13:46 GMT 43.792809 -79.592873 8,825 271 243 3456
2020-02-17 13:13:41 GMT 43.792763 -79.585289 8,525 276 241 3456
2020-02-17 13:13:38 GMT 43.792465 -79.581062 8,350 282 239 3584
2020-02-17 13:13:35 GMT 43.792007 -79.577232 7,100 306 239 4352
2020-02-17 13:13:30 GMT 43.790340 -79.570312 7,925 295 237 3584
2020-02-17 13:13:24 GMT 43.787270 -79.562332 7,550 304 236 4032
2020-02-17 13:13:20 GMT 43.784775 -79.557304 7,325 306 238 4288
2020-02-17 13:13:17 GMT 43.782845 -79.553574 6,825 307 241 3776
2020-02-17 13:13:13 GMT 43.779865 -79.547882 6,750 307 241 4096
2020-02-17 13:13:10 GMT 43.777634 -79.543701 6,525 307 241 3776
2020-02-17 13:13:07 GMT 43.775986 -79.540565 6,325 308 240 3520
2020-02-17 13:13:04 GMT 43.773582 -79.536179 6,175 310 239 3520
2020-02-17 13:12:59 GMT 43.768021 -79.527985 5,700 324 241 3840
2020-02-17 13:12:53 GMT 43.765457 -79.525238 5,625 328 241 3840
2020-02-17 13:12:50 GMT 43.762527 -79.522751 5,325 341 243 3712
2020-02-17 13:12:46 GMT 43.759289 -79.520546 4,975 347 244 3520
2020-02-17 13:12:43 GMT 43.755203 -79.518532 4,975 347 244 3520
2020-02-17 13:12:39 GMT 43.750122 -79.517189 4,550 0 247 3584
2020-02-17 13:12:36 GMT 43.746826 -79.516937 4,375 7 249 2944
2020-02-17 13:12:33 GMT 43.743507 -79.517143 4,300 9 248 2688
2020-02-17 13:12:28 GMT 43.738449 -79.518402 4,150 17 246 2240
2020-02-17 13:12:25 GMT 43.735546 -79.519760 4,050 21 245 2176
2020-02-17 13:12:22 GMT 43.731903 -79.521790 3,900 28 239 2176
2020-02-17 13:12:17 GMT 43.727867 -79.524925 3,775 33 236 2112
2020-02-17 13:12:12 GMT 43.722511 -79.530357 3,550 41 227 1728
2020-02-17 13:12:08 GMT 43.719315 -79.534370 3,425 46 219 1728
2020-02-17 13:12:04 GMT 43.715157 -79.540627 3,300 48 210 1280
2020-02-17 13:11:54 GMT 43.708557 -79.550980 3,100 48 192 1472
2020-02-17 13:11:51 GMT 43.708557 -79.550980 3,050 48 190 1536
2020-02-17 13:11:45 GMT 43.704823 -79.556839 2,950 48 184 1600
2020-02-17 13:11:41 GMT 43.703194 -79.559395 2,800 48 177 1856
2020-02-17 13:11:38 GMT 43.701195 -79.562531 2,675 48 174 1792
2020-02-17 13:11:33 GMT 43.699356 -79.565353 2,575 48 169 1792
2020-02-17 13:11:30 GMT 43.694954 -79.572212 2,325 48 162 1728
2020-02-17 13:11:22 GMT 43.691883 -79.577110 2,175 49 153 1664
2020-02-17 13:11:16 GMT 43.688484 -79.582672 2,025 49 144 1664
2020-02-17 13:11:11 GMT 43.688484 -79.582672 1,925 49 140 1856
2020-02-17 13:11:08 GMT 43.687317 -79.584511 1,925 49 140 1856
2020-02-17 13:11:01 GMT 43.684158 -79.589622 1,500 48 133 2240
2020-02-17 13:10:57 GMT 43.682739 -79.591858 1,525 48 133 2432

Making use of Plane Finder data

You are free to use the raw flight data, aircraft information and images provided in this report for your own purposes provided the data is correctly attributed to Plane Finder. We ask that you please credit Plane Finder and link to planefinder.net in close proximity to the content.

Optionally one of the following logos (no smaller then 150x24px) can be used and must link to planefinder.net

Embedding the Plane Finder map

You are welcome to embed the Plane Finder playback map on your website to offer visitors a more interactive experience. We suggest using the following HTML code:

<iframe src="//planefinder.net/data/report/AA2352-N9029F-7700-squawk-2020-02-17/map" width="800" height="600" seamless="seamless"></iframe>

Where our data comes from

Plane Finder has a global network of data feeds and antenna radars that receive data broadcast directly from aircraft. The primary technologies used are ADS-B and MLAT. We also show feeds from the FAA and a FLARM glider feed.

Click here to find out more about the Plane Finder network.

How we collect our data